UAE1KM OMDB-EGCC
Flight info
| Callsign | UAE1KM |
|---|---|
| Flight time | N/A |
| Altitude | 36000 |
| Route | DAVMO M318 GABKO M317 ROTAL P574 SYZ P550 DASIS UL746 GOKPA/N0492F380 UL746 ODERO DCT OPT DCT DEGET DCT ABETI DCT RENKA DCT INBED DCT BOMBI DCT ADKUV DCT SOGRI DCT DENUT L610 LAM UN57 WELIN T420 ELVOS |
| Aircraft | A388/J-SADE2E3FGHIJ3J4J5M1RWXY/LB1D1 |
Departure
| Time | 2026-04-20 13:03 |
|---|---|
| Airport | Dubai International Airport (OMDB) |
Arrival
| Time | N/A |
|---|---|
| Airport | Manchester Airport (EGCC) |
| Time | Latitude | Longitude | Altitude | Speed | Heading |
|---|---|---|---|---|---|
| 2026-04-20 12:47 | 25.24219 | 55.37604 | 45 ft | 0 kts | 249° |
| 2026-04-20 12:52 | 25.24227 | 55.37617 | 44 ft | 2 kts | 235° |
| 2026-04-20 12:52 | 25.24239 | 55.37630 | 42 ft | 2 kts | 216° |
| 2026-04-20 12:52 | 25.24254 | 55.37637 | 42 ft | 2 kts | 196° |
| 2026-04-20 12:52 | 25.24271 | 55.37638 | 45 ft | 2 kts | 180° |
| 2026-04-20 12:53 | 25.24287 | 55.37636 | 43 ft | 2 kts | 169° |
| 2026-04-20 12:53 | 25.24303 | 55.37630 | 42 ft | 2 kts | 159° |
| 2026-04-20 12:53 | 25.24317 | 55.37622 | 40 ft | 2 kts | 148° |
| 2026-04-20 12:53 | 25.24322 | 55.37617 | 43 ft | 1 kts | 139° |
| 2026-04-20 12:56 | 25.24321 | 55.37618 | 40 ft | 1 kts | 139° |
| 2026-04-20 12:56 | 25.24312 | 55.37628 | 40 ft | 2 kts | 123° |
| 2026-04-20 12:56 | 25.24299 | 55.37650 | 41 ft | 5 kts | 122° |
| 2026-04-20 12:56 | 25.24278 | 55.37690 | 46 ft | 8 kts | 119° |
| 2026-04-20 12:57 | 25.24247 | 55.37753 | 47 ft | 11 kts | 118° |
| 2026-04-20 12:57 | 25.24205 | 55.37833 | 46 ft | 13 kts | 120° |
| 2026-04-20 12:57 | 25.24172 | 55.37894 | 46 ft | 15 kts | 120° |
| 2026-04-20 12:57 | 25.24114 | 55.37998 | 46 ft | 17 kts | 123° |
| 2026-04-20 12:58 | 25.24051 | 55.38110 | 48 ft | 17 kts | 121° |
| 2026-04-20 12:58 | 25.23984 | 55.38228 | 50 ft | 19 kts | 122° |
| 2026-04-20 12:58 | 25.23914 | 55.38354 | 52 ft | 20 kts | 121° |
| 2026-04-20 12:58 | 25.23873 | 55.38481 | 52 ft | 15 kts | 64° |
| 2026-04-20 12:59 | 25.23887 | 55.38587 | 54 ft | 14 kts | 119° |
| 2026-04-20 12:59 | 25.23836 | 55.38683 | 54 ft | 16 kts | 121° |
| 2026-04-20 12:59 | 25.23777 | 55.38790 | 59 ft | 17 kts | 121° |
| 2026-04-20 12:59 | 25.23712 | 55.38908 | 57 ft | 19 kts | 121° |
| 2026-04-20 13:00 | 25.23644 | 55.39032 | 59 ft | 19 kts | 122° |
| 2026-04-20 13:00 | 25.23571 | 55.39161 | 64 ft | 20 kts | 122° |
| 2026-04-20 13:00 | 25.23495 | 55.39296 | 63 ft | 21 kts | 122° |
| 2026-04-20 13:00 | 25.23469 | 55.39416 | 65 ft | 13 kts | 54° |
| 2026-04-20 13:01 | 25.23511 | 55.39457 | 83 ft | 6 kts | 34° |
| 2026-04-20 13:01 | 25.23549 | 55.39483 | 84 ft | 6 kts | 18° |
| 2026-04-20 13:01 | 25.23588 | 55.39480 | 87 ft | 5 kts | 330° |
| 2026-04-20 13:01 | 25.23608 | 55.39452 | 87 ft | 10 kts | 302° |
| 2026-04-20 13:02 | 25.23769 | 55.39163 | 70 ft | 81 kts | 302° |
| 2026-04-20 13:02 | 25.24171 | 55.38439 | 55 ft | 136 kts | 301° |
| 2026-04-20 13:02 | 25.24733 | 55.37434 | 43 ft | 168 kts | 302° |
| 2026-04-20 13:02 | 25.25363 | 55.36313 | 317 ft | 172 kts | 303° |
| 2026-04-20 13:03 | 25.26039 | 55.35207 | 648 ft | 174 kts | 304° |
| 2026-04-20 13:03 | 25.26724 | 55.34120 | 1043 ft | 172 kts | 304° |
| 2026-04-20 13:03 | 25.27415 | 55.33006 | 1341 ft | 176 kts | 304° |
| 2026-04-20 13:03 | 25.28108 | 55.31870 | 1639 ft | 182 kts | 304° |
| 2026-04-20 13:04 | 25.28813 | 55.30709 | 2089 ft | 180 kts | 305° |
| 2026-04-20 13:04 | 25.29696 | 55.29740 | 2514 ft | 180 kts | 333° |
| 2026-04-20 13:04 | 25.30900 | 55.29436 | 2985 ft | 180 kts | 1° |
| 2026-04-20 13:04 | 25.32167 | 55.29530 | 3335 ft | 183 kts | 2° |
| 2026-04-20 13:05 | 25.33394 | 55.29581 | 3726 ft | 183 kts | 0° |
| 2026-04-20 13:05 | 25.34676 | 55.29608 | 4131 ft | 184 kts | 0° |
| 2026-04-20 13:05 | 25.35956 | 55.29633 | 4547 ft | 184 kts | 0° |
| 2026-04-20 13:05 | 25.37235 | 55.29662 | 4904 ft | 185 kts | 0° |
| 2026-04-20 13:06 | 25.38526 | 55.29690 | 5237 ft | 186 kts | 1° |
| 2026-04-20 13:06 | 25.39816 | 55.29844 | 5560 ft | 187 kts | 11° |
| 2026-04-20 13:06 | 25.41067 | 55.30265 | 5903 ft | 189 kts | 21° |
| 2026-04-20 13:06 | 25.42271 | 55.30861 | 6208 ft | 190 kts | 22° |
| 2026-04-20 13:07 | 25.43494 | 55.31442 | 6508 ft | 191 kts | 21° |
| 2026-04-20 13:07 | 25.44724 | 55.32011 | 6797 ft | 192 kts | 21° |
| 2026-04-20 13:07 | 25.45968 | 55.32583 | 7094 ft | 197 kts | 21° |
| 2026-04-20 13:07 | 25.47237 | 55.33168 | 7611 ft | 196 kts | 21° |
| 2026-04-20 13:08 | 25.48501 | 55.33755 | 8129 ft | 198 kts | 21° |
| 2026-04-20 13:08 | 25.49826 | 55.34364 | 8313 ft | 221 kts | 21° |
| 2026-04-20 13:08 | 25.51327 | 55.35039 | 8507 ft | 240 kts | 21° |
| 2026-04-20 13:08 | 25.52839 | 55.35740 | 9301 ft | 234 kts | 21° |
| 2026-04-20 13:09 | 25.54396 | 55.36475 | 9558 ft | 255 kts | 21° |
| 2026-04-20 13:09 | 25.56096 | 55.37275 | 9741 ft | 276 kts | 21° |
| 2026-04-20 13:09 | 25.57897 | 55.38200 | 9925 ft | 295 kts | 28° |
| 2026-04-20 13:09 | 25.59639 | 55.39482 | 10066 ft | 314 kts | 34° |
| 2026-04-20 13:10 | 25.61481 | 55.40951 | 10211 ft | 330 kts | 34° |
| 2026-04-20 13:10 | 25.63403 | 55.42461 | 10405 ft | 344 kts | 33° |
| 2026-04-20 13:10 | 25.65373 | 55.44000 | 10902 ft | 348 kts | 33° |
| 2026-04-20 13:10 | 25.67312 | 55.45626 | 11393 ft | 353 kts | 39° |
| 2026-04-20 13:11 | 25.69048 | 55.47452 | 11889 ft | 356 kts | 41° |
| 2026-04-20 13:11 | 25.70870 | 55.49379 | 12421 ft | 359 kts | 41° |
| 2026-04-20 13:11 | 25.72701 | 55.51298 | 12937 ft | 363 kts | 41° |
| 2026-04-20 13:11 | 25.74517 | 55.53198 | 13453 ft | 366 kts | 40° |
| 2026-04-20 13:12 | 25.76380 | 55.55148 | 13928 ft | 369 kts | 40° |
| 2026-04-20 13:12 | 25.78229 | 55.57087 | 14392 ft | 372 kts | 40° |
| 2026-04-20 13:12 | 25.80109 | 55.59060 | 14854 ft | 375 kts | 41° |
| 2026-04-20 13:12 | 25.82012 | 55.61059 | 15342 ft | 378 kts | 41° |
| 2026-04-20 13:13 | 25.83929 | 55.63075 | 15794 ft | 381 kts | 41° |
| 2026-04-20 13:13 | 25.85917 | 55.65036 | 16227 ft | 382 kts | 35° |
| 2026-04-20 13:13 | 25.88115 | 55.66684 | 16713 ft | 383 kts | 29° |
| 2026-04-20 13:13 | 25.90389 | 55.68261 | 17155 ft | 387 kts | 30° |
| 2026-04-20 13:14 | 25.92664 | 55.69862 | 17601 ft | 389 kts | 30° |
| 2026-04-20 13:14 | 25.94958 | 55.71485 | 18056 ft | 392 kts | 30° |
| 2026-04-20 13:14 | 25.97265 | 55.73119 | 18429 ft | 395 kts | 30° |
| 2026-04-20 13:14 | 25.99595 | 55.74768 | 18792 ft | 398 kts | 30° |
| 2026-04-20 13:15 | 26.01942 | 55.76429 | 19143 ft | 401 kts | 30° |
| 2026-04-20 13:15 | 26.04317 | 55.78075 | 19502 ft | 403 kts | 25° |
| 2026-04-20 13:15 | 26.06911 | 55.79213 | 19851 ft | 400 kts | 11° |
| 2026-04-20 13:15 | 26.09648 | 55.79617 | 20216 ft | 397 kts | 357° |
| 2026-04-20 13:16 | 26.12394 | 55.79425 | 20568 ft | 397 kts | 352° |
| 2026-04-20 13:16 | 26.15155 | 55.79188 | 20929 ft | 399 kts | 351° |
| 2026-04-20 13:16 | 26.17861 | 55.78537 | 21262 ft | 395 kts | 336° |
| 2026-04-20 13:16 | 26.20265 | 55.77117 | 21647 ft | 391 kts | 321° |
| 2026-04-20 13:17 | 26.22235 | 55.75055 | 22026 ft | 388 kts | 307° |
| 2026-04-20 13:17 | 26.23914 | 55.72693 | 22379 ft | 390 kts | 306° |
| 2026-04-20 13:17 | 26.25611 | 55.70332 | 22756 ft | 392 kts | 306° |
| 2026-04-20 13:17 | 26.27322 | 55.67968 | 23126 ft | 394 kts | 306° |
| 2026-04-20 13:18 | 26.29046 | 55.65587 | 23474 ft | 396 kts | 306° |
| 2026-04-20 13:18 | 26.30780 | 55.63188 | 23756 ft | 398 kts | 306° |
| 2026-04-20 13:18 | 26.32519 | 55.60779 | 24033 ft | 401 kts | 306° |
| 2026-04-20 13:18 | 26.34233 | 55.58404 | 24321 ft | 403 kts | 306° |
| 2026-04-20 13:19 | 26.35989 | 55.55968 | 24594 ft | 405 kts | 306° |
| 2026-04-20 13:19 | 26.37764 | 55.53504 | 24890 ft | 408 kts | 306° |
| 2026-04-20 13:19 | 26.39567 | 55.51003 | 25180 ft | 411 kts | 306° |
| 2026-04-20 13:19 | 26.41347 | 55.48546 | 25484 ft | 413 kts | 306° |
| 2026-04-20 13:20 | 26.43187 | 55.46011 | 25801 ft | 416 kts | 306° |
| 2026-04-20 13:20 | 26.45010 | 55.43496 | 26131 ft | 419 kts | 306° |
| 2026-04-20 13:20 | 26.46848 | 55.40958 | 26470 ft | 421 kts | 306° |
| 2026-04-20 13:20 | 26.48663 | 55.38449 | 26809 ft | 424 kts | 306° |
| 2026-04-20 13:21 | 26.50555 | 55.35833 | 27166 ft | 427 kts | 306° |
| 2026-04-20 13:21 | 26.52396 | 55.33284 | 27517 ft | 430 kts | 306° |
| 2026-04-20 13:21 | 26.54279 | 55.30675 | 27863 ft | 433 kts | 306° |
| 2026-04-20 13:21 | 26.56175 | 55.28043 | 28232 ft | 436 kts | 306° |
| 2026-04-20 13:22 | 26.58079 | 55.25398 | 28604 ft | 439 kts | 306° |
| 2026-04-20 13:22 | 26.60003 | 55.22723 | 28964 ft | 442 kts | 306° |
| 2026-04-20 13:22 | 26.61938 | 55.20034 | 29334 ft | 445 kts | 306° |
| 2026-04-20 13:22 | 26.63879 | 55.17333 | 29673 ft | 448 kts | 306° |
| 2026-04-20 13:23 | 26.65837 | 55.14608 | 30009 ft | 451 kts | 306° |
| 2026-04-20 13:23 | 26.67765 | 55.11923 | 30365 ft | 453 kts | 307° |
| 2026-04-20 13:23 | 26.69724 | 55.09194 | 30733 ft | 454 kts | 307° |
| 2026-04-20 13:23 | 26.71701 | 55.06436 | 31077 ft | 456 kts | 307° |
| 2026-04-20 13:24 | 26.73694 | 55.03655 | 31420 ft | 459 kts | 307° |
| 2026-04-20 13:24 | 26.75695 | 55.00861 | 31737 ft | 461 kts | 307° |
| 2026-04-20 13:24 | 26.77700 | 54.98060 | 32081 ft | 463 kts | 307° |
| 2026-04-20 13:24 | 26.79715 | 54.95243 | 32391 ft | 465 kts | 307° |
| 2026-04-20 13:25 | 26.81740 | 54.92399 | 32713 ft | 468 kts | 307° |
| 2026-04-20 13:25 | 26.83770 | 54.89539 | 33003 ft | 471 kts | 307° |
| 2026-04-20 13:25 | 26.85814 | 54.86660 | 33309 ft | 473 kts | 307° |
| 2026-04-20 13:25 | 26.87824 | 54.83826 | 33623 ft | 476 kts | 307° |
| 2026-04-20 13:26 | 26.89904 | 54.80895 | 33928 ft | 478 kts | 307° |
| 2026-04-20 13:26 | 26.91964 | 54.77989 | 34328 ft | 477 kts | 307° |
| 2026-04-20 13:26 | 26.94020 | 54.75088 | 34907 ft | 471 kts | 307° |
| 2026-04-20 13:26 | 26.96042 | 54.72235 | 35590 ft | 464 kts | 307° |
| 2026-04-20 13:27 | 26.98048 | 54.69399 | 35822 ft | 461 kts | 307° |
| 2026-04-20 13:27 | 27.02020 | 54.63780 | 35842 ft | 461 kts | 307° |
| 2026-04-20 13:28 | 27.06004 | 54.58135 | 35850 ft | 462 kts | 306° |
| 2026-04-20 13:28 | 27.09993 | 54.52479 | 35852 ft | 461 kts | 306° |
| 2026-04-20 13:29 | 27.13970 | 54.46831 | 35855 ft | 461 kts | 306° |
| 2026-04-20 13:29 | 27.17936 | 54.41193 | 35856 ft | 459 kts | 306° |
| 2026-04-20 13:30 | 27.21890 | 54.35564 | 35860 ft | 458 kts | 306° |
| 2026-04-20 13:30 | 27.25797 | 54.29994 | 35846 ft | 455 kts | 306° |
| 2026-04-20 13:31 | 27.29707 | 54.24414 | 35842 ft | 455 kts | 306° |
| 2026-04-20 13:31 | 27.33604 | 54.18845 | 35841 ft | 454 kts | 306° |
| 2026-04-20 13:32 | 27.37504 | 54.13264 | 35838 ft | 453 kts | 306° |
| 2026-04-20 13:32 | 27.41393 | 54.07692 | 35843 ft | 452 kts | 306° |
| 2026-04-20 13:33 | 27.45277 | 54.02120 | 35851 ft | 452 kts | 306° |
| 2026-04-20 13:33 | 27.49160 | 53.96543 | 35862 ft | 453 kts | 306° |
| 2026-04-20 13:34 | 27.53260 | 53.91152 | 35871 ft | 456 kts | 313° |
| 2026-04-20 13:34 | 27.58220 | 53.86641 | 35885 ft | 462 kts | 323° |
| 2026-04-20 13:35 | 27.63818 | 53.82998 | 35897 ft | 465 kts | 327° |
| 2026-04-20 13:35 | 27.69461 | 53.79408 | 35905 ft | 466 kts | 326° |
| 2026-04-20 13:36 | 27.75116 | 53.75808 | 35928 ft | 467 kts | 326° |
| 2026-04-20 13:36 | 27.80781 | 53.72205 | 35927 ft | 468 kts | 326° |
| 2026-04-20 13:37 | 27.86451 | 53.68597 | 35923 ft | 468 kts | 326° |
| 2026-04-20 13:37 | 27.92118 | 53.64986 | 35927 ft | 468 kts | 326° |
| 2026-04-20 13:38 | 27.97784 | 53.61371 | 35923 ft | 467 kts | 326° |
| 2026-04-20 13:38 | 28.03442 | 53.57757 | 35918 ft | 467 kts | 326° |
| 2026-04-20 13:39 | 28.09097 | 53.54139 | 35928 ft | 467 kts | 326° |
| 2026-04-20 13:39 | 28.14742 | 53.50523 | 35931 ft | 466 kts | 326° |
| 2026-04-20 13:40 | 28.20383 | 53.46907 | 35923 ft | 466 kts | 326° |
| 2026-04-20 13:40 | 28.26028 | 53.43283 | 35927 ft | 466 kts | 326° |
| 2026-04-20 13:41 | 28.31632 | 53.39681 | 35931 ft | 466 kts | 326° |
| 2026-04-20 13:41 | 28.37278 | 53.36047 | 35937 ft | 467 kts | 326° |
| 2026-04-20 13:42 | 28.42928 | 53.32407 | 35948 ft | 467 kts | 326° |
| 2026-04-20 13:42 | 28.51400 | 53.26940 | 35947 ft | 467 kts | 325° |
| 2026-04-20 13:43 | 28.57050 | 53.23264 | 35956 ft | 468 kts | 325° |
| 2026-04-20 13:43 | 28.62110 | 53.19928 | 35969 ft | 468 kts | 325° |
| 2026-04-20 13:44 | 28.67745 | 53.16215 | 35981 ft | 469 kts | 324° |
| 2026-04-20 13:44 | 28.72453 | 53.13113 | 35988 ft | 469 kts | 324° |
| 2026-04-20 13:45 | 28.78110 | 53.09382 | 36002 ft | 470 kts | 324° |
| 2026-04-20 13:45 | 28.83766 | 53.05648 | 36005 ft | 470 kts | 324° |
| 2026-04-20 13:46 | 28.89421 | 53.01910 | 36014 ft | 470 kts | 324° |
| 2026-04-20 13:46 | 28.95083 | 52.98163 | 36024 ft | 469 kts | 324° |
| 2026-04-20 13:47 | 29.00731 | 52.94418 | 36020 ft | 469 kts | 324° |
| 2026-04-20 13:47 | 29.06374 | 52.90674 | 36012 ft | 469 kts | 324° |
| 2026-04-20 13:48 | 29.12008 | 52.86933 | 36017 ft | 469 kts | 324° |
| 2026-04-20 13:48 | 29.17656 | 52.83178 | 36017 ft | 470 kts | 324° |
| 2026-04-20 13:49 | 29.23313 | 52.79411 | 36019 ft | 471 kts | 324° |
| 2026-04-20 13:49 | 29.28988 | 52.75628 | 36026 ft | 472 kts | 324° |
| 2026-04-20 13:50 | 29.34672 | 52.71833 | 36039 ft | 473 kts | 323° |
| 2026-04-20 13:50 | 29.40362 | 52.68030 | 36044 ft | 474 kts | 323° |
| 2026-04-20 13:51 | 29.46076 | 52.64207 | 36040 ft | 475 kts | 323° |
| 2026-04-20 13:51 | 29.51676 | 52.60238 | 36044 ft | 470 kts | 317° |
| 2026-04-20 13:52 | 29.56598 | 52.55382 | 36047 ft | 462 kts | 308° |
| 2026-04-20 13:52 | 29.60846 | 52.49899 | 36050 ft | 460 kts | 305° |
| 2026-04-20 13:53 | 29.65075 | 52.44380 | 36060 ft | 459 kts | 305° |
| 2026-04-20 13:53 | 29.69249 | 52.38918 | 36049 ft | 458 kts | 305° |
| 2026-04-20 13:54 | 29.73431 | 52.33416 | 36044 ft | 457 kts | 305° |
| 2026-04-20 13:54 | 29.77617 | 52.27896 | 36048 ft | 458 kts | 305° |
| 2026-04-20 13:55 | 29.81814 | 52.22355 | 36069 ft | 460 kts | 304° |
| 2026-04-20 13:55 | 29.86211 | 52.16956 | 36074 ft | 467 kts | 311° |
| 2026-04-20 13:56 | 29.91434 | 52.12365 | 36085 ft | 478 kts | 321° |
| 2026-04-20 13:56 | 29.97090 | 52.08312 | 36092 ft | 479 kts | 320° |
| 2026-04-20 13:57 | 30.02738 | 52.04217 | 36101 ft | 480 kts | 320° |
| 2026-04-20 13:57 | 30.08386 | 52.00126 | 36101 ft | 480 kts | 320° |
| 2026-04-20 13:58 | 30.14033 | 51.96036 | 36101 ft | 479 kts | 320° |
| 2026-04-20 13:58 | 30.19682 | 51.91939 | 36098 ft | 478 kts | 320° |
| 2026-04-20 13:59 | 30.25312 | 51.87849 | 36095 ft | 478 kts | 320° |
| 2026-04-20 13:59 | 30.30935 | 51.83759 | 36091 ft | 478 kts | 320° |
| 2026-04-20 14:00 | 30.36558 | 51.79664 | 36082 ft | 477 kts | 320° |
| 2026-04-20 14:00 | 30.42190 | 51.75554 | 36095 ft | 478 kts | 320° |
| 2026-04-20 14:01 | 30.47832 | 51.71432 | 36123 ft | 481 kts | 320° |
| 2026-04-20 14:01 | 30.53508 | 51.67280 | 36151 ft | 484 kts | 320° |
| 2026-04-20 14:02 | 30.59165 | 51.63138 | 36170 ft | 485 kts | 320° |
| 2026-04-20 14:02 | 30.64875 | 51.58949 | 36174 ft | 486 kts | 320° |
| 2026-04-20 14:03 | 30.70586 | 51.54752 | 36176 ft | 486 kts | 319° |
| 2026-04-20 14:03 | 30.76227 | 51.50421 | 36176 ft | 485 kts | 318° |
| 2026-04-20 14:04 | 30.81827 | 51.46084 | 36171 ft | 484 kts | 318° |
| 2026-04-20 14:04 | 30.87454 | 51.41747 | 36152 ft | 484 kts | 318° |
| 2026-04-20 14:05 | 30.92566 | 51.37806 | 36146 ft | 484 kts | 318° |
| 2026-04-20 14:05 | 30.98170 | 51.33480 | 36138 ft | 483 kts | 318° |
| 2026-04-20 14:06 | 31.03777 | 51.29145 | 36139 ft | 483 kts | 318° |
| 2026-04-20 14:06 | 31.09157 | 51.24981 | 36136 ft | 482 kts | 318° |
| 2026-04-20 14:07 | 31.14741 | 51.20651 | 36136 ft | 481 kts | 318° |
| 2026-04-20 14:07 | 31.20301 | 51.16334 | 36135 ft | 481 kts | 317° |
| 2026-04-20 14:08 | 31.25922 | 51.11942 | 36117 ft | 488 kts | 318° |
| 2026-04-20 14:08 | 31.31491 | 51.07617 | 36113 ft | 475 kts | 317° |
| 2026-04-20 14:09 | 31.37051 | 51.03283 | 36118 ft | 483 kts | 317° |
| 2026-04-20 14:09 | 31.42629 | 50.98934 | 36115 ft | 480 kts | 317° |
| 2026-04-20 14:10 | 31.48167 | 50.94606 | 36106 ft | 478 kts | 317° |
| 2026-04-20 14:10 | 31.53708 | 50.90263 | 36108 ft | 480 kts | 317° |
| 2026-04-20 14:11 | 31.59257 | 50.85911 | 36107 ft | 478 kts | 317° |
| 2026-04-20 14:11 | 31.64760 | 50.81589 | 36083 ft | 477 kts | 317° |
| 2026-04-20 14:12 | 31.70272 | 50.77255 | 36063 ft | 476 kts | 317° |
| 2026-04-20 14:12 | 31.75768 | 50.72925 | 36055 ft | 475 kts | 316° |
| 2026-04-20 14:13 | 31.81228 | 50.68619 | 36062 ft | 472 kts | 317° |
| 2026-04-20 14:13 | 31.86665 | 50.64313 | 36096 ft | 479 kts | 317° |
| 2026-04-20 14:14 | 31.92232 | 50.59907 | 36109 ft | 483 kts | 317° |
| 2026-04-20 14:14 | 31.97812 | 50.55490 | 36105 ft | 484 kts | 316° |
| 2026-04-20 14:15 | 32.03395 | 50.51060 | 36104 ft | 483 kts | 317° |
| 2026-04-20 14:15 | 32.08977 | 50.46628 | 36100 ft | 483 kts | 316° |
| 2026-04-20 14:16 | 32.14556 | 50.42185 | 36098 ft | 486 kts | 316° |
| 2026-04-20 14:16 | 32.20161 | 50.37715 | 36100 ft | 487 kts | 317° |
| 2026-04-20 14:17 | 32.25766 | 50.33242 | 36091 ft | 487 kts | 317° |
| 2026-04-20 14:17 | 32.31368 | 50.28763 | 36088 ft | 486 kts | 317° |
| 2026-04-20 14:18 | 32.36981 | 50.24267 | 36090 ft | 488 kts | 317° |
| 2026-04-20 14:18 | 32.42577 | 50.19787 | 36062 ft | 484 kts | 316° |
| 2026-04-20 14:19 | 32.48152 | 50.15307 | 36049 ft | 484 kts | 316° |
| 2026-04-20 14:19 | 32.53725 | 50.10821 | 36059 ft | 485 kts | 316° |
| 2026-04-20 14:20 | 32.58892 | 50.06656 | 36066 ft | 486 kts | 316° |
| 2026-04-20 14:20 | 32.64479 | 50.02147 | 36094 ft | 485 kts | 316° |
| 2026-04-20 14:21 | 32.70073 | 49.97630 | 36069 ft | 487 kts | 315° |
| 2026-04-20 14:21 | 32.75687 | 49.93083 | 36087 ft | 490 kts | 315° |
| 2026-04-20 14:22 | 32.81301 | 49.88545 | 36094 ft | 486 kts | 315° |
| 2026-04-20 14:22 | 32.86857 | 49.84027 | 36088 ft | 487 kts | 315° |
| 2026-04-20 14:23 | 32.92455 | 49.79470 | 36068 ft | 487 kts | 315° |
| 2026-04-20 14:23 | 32.97999 | 49.74955 | 36064 ft | 488 kts | 315° |
| 2026-04-20 14:24 | 33.03596 | 49.70393 | 36052 ft | 487 kts | 315° |
| 2026-04-20 14:24 | 33.09178 | 49.65833 | 36036 ft | 485 kts | 315° |
| 2026-04-20 14:25 | 33.14732 | 49.61294 | 36015 ft | 483 kts | 315° |
| 2026-04-20 14:25 | 33.20263 | 49.56762 | 36015 ft | 482 kts | 315° |
| 2026-04-20 14:26 | 33.25750 | 49.52209 | 35963 ft | 477 kts | 315° |
| 2026-04-20 14:26 | 33.31195 | 49.47664 | 35988 ft | 481 kts | 315° |
| 2026-04-20 14:27 | 33.35433 | 49.44126 | 35993 ft | 481 kts | 315° |
| 2026-04-20 14:27 | 33.40865 | 49.39597 | 35986 ft | 481 kts | 315° |
| 2026-04-20 14:28 | 33.46364 | 49.35000 | 35995 ft | 482 kts | 315° |
| 2026-04-20 14:28 | 33.51849 | 49.30412 | 35986 ft | 481 kts | 315° |
| 2026-04-20 14:29 | 33.57346 | 49.25803 | 35996 ft | 483 kts | 315° |
| 2026-04-20 14:29 | 33.62845 | 49.21185 | 35990 ft | 483 kts | 315° |
| 2026-04-20 14:30 | 33.68340 | 49.16562 | 36005 ft | 483 kts | 315° |
| 2026-04-20 14:30 | 33.73852 | 49.11922 | 36003 ft | 484 kts | 315° |
| 2026-04-20 14:31 | 33.79353 | 49.07278 | 36008 ft | 484 kts | 315° |
| 2026-04-20 14:31 | 33.84867 | 49.02618 | 36004 ft | 484 kts | 315° |
| 2026-04-20 14:32 | 33.90363 | 48.97968 | 35991 ft | 482 kts | 315° |
| 2026-04-20 14:32 | 33.94917 | 48.94109 | 35978 ft | 481 kts | 315° |
| 2026-04-20 14:33 | 34.00336 | 48.89507 | 35975 ft | 480 kts | 315° |
| 2026-04-20 14:33 | 34.05792 | 48.84865 | 35972 ft | 480 kts | 315° |
| 2026-04-20 14:34 | 34.11238 | 48.80226 | 35970 ft | 480 kts | 315° |
| 2026-04-20 14:34 | 34.16696 | 48.75570 | 35959 ft | 479 kts | 315° |
| 2026-04-20 14:35 | 34.22132 | 48.70924 | 35964 ft | 479 kts | 315° |
| 2026-04-20 14:35 | 34.27584 | 48.66258 | 35961 ft | 480 kts | 315° |
| 2026-04-20 14:36 | 34.33030 | 48.61589 | 35970 ft | 480 kts | 315° |
| 2026-04-20 14:36 | 34.38477 | 48.56912 | 35978 ft | 481 kts | 315° |
| 2026-04-20 14:37 | 34.43930 | 48.52223 | 35980 ft | 481 kts | 315° |
| 2026-04-20 14:37 | 34.49385 | 48.47524 | 35984 ft | 481 kts | 315° |
| 2026-04-20 14:38 | 34.54839 | 48.42818 | 35994 ft | 481 kts | 315° |
| 2026-04-20 14:38 | 34.60291 | 48.38106 | 35998 ft | 481 kts | 315° |
| 2026-04-20 14:39 | 34.65730 | 48.33398 | 36005 ft | 480 kts | 315° |
| 2026-04-20 14:39 | 34.71165 | 48.28685 | 35993 ft | 480 kts | 315° |
| 2026-04-20 14:40 | 34.76496 | 48.24055 | 35979 ft | 479 kts | 315° |
| 2026-04-20 14:40 | 34.81919 | 48.19337 | 35991 ft | 478 kts | 315° |
| 2026-04-20 14:41 | 34.87332 | 48.14620 | 35976 ft | 479 kts | 315° |
| 2026-04-20 14:41 | 34.92748 | 48.09893 | 35973 ft | 479 kts | 315° |
| 2026-04-20 14:42 | 34.98168 | 48.05154 | 35979 ft | 480 kts | 315° |
| 2026-04-20 14:42 | 35.03606 | 48.00390 | 35986 ft | 482 kts | 315° |
| 2026-04-20 14:43 | 35.09054 | 47.95613 | 35989 ft | 483 kts | 315° |
| 2026-04-20 14:43 | 35.14594 | 47.90995 | 35986 ft | 489 kts | 319° |
| 2026-04-20 14:44 | 35.20426 | 47.86597 | 35990 ft | 490 kts | 320° |
| 2026-04-20 14:44 | 35.26211 | 47.82169 | 35990 ft | 490 kts | 319° |
| 2026-04-20 14:45 | 35.31935 | 47.77731 | 35989 ft | 490 kts | 319° |
| 2026-04-20 14:45 | 35.37693 | 47.73249 | 35979 ft | 490 kts | 319° |
| 2026-04-20 14:46 | 35.43445 | 47.68765 | 35971 ft | 490 kts | 319° |
| 2026-04-20 14:46 | 35.49195 | 47.64274 | 35965 ft | 490 kts | 319° |
| 2026-04-20 14:47 | 35.54944 | 47.59778 | 35953 ft | 490 kts | 319° |
| 2026-04-20 14:48 | 35.63549 | 47.53033 | 35945 ft | 489 kts | 319° |
| 2026-04-20 14:48 | 35.69267 | 47.48540 | 35943 ft | 489 kts | 319° |
| 2026-04-20 14:49 | 35.74993 | 47.44034 | 35945 ft | 489 kts | 319° |
| 2026-04-20 14:49 | 35.80719 | 47.39520 | 35949 ft | 489 kts | 319° |
| 2026-04-20 14:50 | 35.86442 | 47.35001 | 35952 ft | 489 kts | 319° |
| 2026-04-20 14:50 | 35.92176 | 47.30465 | 35956 ft | 489 kts | 319° |
| 2026-04-20 14:51 | 35.97895 | 47.25933 | 35948 ft | 489 kts | 319° |
| 2026-04-20 14:51 | 36.03616 | 47.21391 | 35969 ft | 489 kts | 319° |
| 2026-04-20 14:52 | 36.09339 | 47.16840 | 35970 ft | 489 kts | 319° |
| 2026-04-20 14:52 | 36.15065 | 47.12280 | 35989 ft | 490 kts | 319° |
| 2026-04-20 14:53 | 36.20790 | 47.07713 | 35987 ft | 490 kts | 319° |
| 2026-04-20 14:53 | 36.26507 | 47.03147 | 35997 ft | 490 kts | 319° |
| 2026-04-20 14:54 | 36.32259 | 46.98553 | 36001 ft | 490 kts | 319° |
| 2026-04-20 14:54 | 36.37970 | 46.93982 | 35999 ft | 490 kts | 319° |
| 2026-04-20 14:55 | 36.43701 | 46.89386 | 36003 ft | 490 kts | 319° |
| 2026-04-20 14:55 | 36.49428 | 46.84784 | 36003 ft | 490 kts | 319° |
| 2026-04-20 14:56 | 36.55157 | 46.80173 | 36003 ft | 490 kts | 319° |
| 2026-04-20 14:56 | 36.60876 | 46.75561 | 35995 ft | 491 kts | 319° |
| 2026-04-20 14:57 | 36.66607 | 46.70931 | 35981 ft | 491 kts | 319° |
| 2026-04-20 14:57 | 36.72327 | 46.66302 | 35978 ft | 491 kts | 319° |
| 2026-04-20 14:58 | 36.78015 | 46.61691 | 35969 ft | 491 kts | 319° |
| 2026-04-20 14:58 | 36.83743 | 46.57039 | 35965 ft | 492 kts | 319° |
| 2026-04-20 14:59 | 36.89482 | 46.52369 | 35959 ft | 493 kts | 319° |
| 2026-04-20 14:59 | 36.95224 | 46.47688 | 35949 ft | 494 kts | 319° |
| 2026-04-20 15:00 | 37.00978 | 46.42990 | 35949 ft | 494 kts | 319° |
| 2026-04-20 15:00 | 37.06724 | 46.38290 | 35940 ft | 494 kts | 319° |
| 2026-04-20 15:01 | 37.12489 | 46.33564 | 35939 ft | 494 kts | 320° |
| 2026-04-20 15:01 | 37.18249 | 46.28834 | 35942 ft | 495 kts | 320° |
| 2026-04-20 15:02 | 37.24012 | 46.24093 | 35945 ft | 495 kts | 320° |
| 2026-04-20 15:02 | 37.29771 | 46.19347 | 35936 ft | 495 kts | 320° |
| 2026-04-20 15:03 | 37.35521 | 46.14599 | 35933 ft | 495 kts | 320° |
| 2026-04-20 15:03 | 37.41283 | 46.09833 | 35931 ft | 496 kts | 320° |
| 2026-04-20 15:04 | 37.47048 | 46.05055 | 35927 ft | 496 kts | 320° |
| 2026-04-20 15:04 | 37.52768 | 46.00304 | 35918 ft | 496 kts | 320° |
| 2026-04-20 15:05 | 37.58541 | 45.95502 | 35909 ft | 497 kts | 320° |
| 2026-04-20 15:05 | 37.64555 | 45.91110 | 35900 ft | 507 kts | 329° |
| 2026-04-20 15:06 | 37.71052 | 45.87660 | 35894 ft | 508 kts | 330° |
| 2026-04-20 15:06 | 37.77564 | 45.84161 | 35886 ft | 509 kts | 330° |
| 2026-04-20 15:07 | 37.84057 | 45.80674 | 35884 ft | 509 kts | 330° |
| 2026-04-20 15:07 | 37.90578 | 45.77172 | 35877 ft | 509 kts | 330° |
| 2026-04-20 15:08 | 37.97089 | 45.73669 | 35882 ft | 508 kts | 330° |
| 2026-04-20 15:08 | 38.03599 | 45.70160 | 35874 ft | 508 kts | 330° |
| 2026-04-20 15:09 | 38.10093 | 45.66653 | 35878 ft | 507 kts | 330° |
| 2026-04-20 15:09 | 38.16573 | 45.63146 | 35863 ft | 507 kts | 331° |
| 2026-04-20 15:10 | 38.23079 | 45.59618 | 35857 ft | 507 kts | 331° |
| 2026-04-20 15:10 | 38.29568 | 45.56093 | 35848 ft | 507 kts | 331° |
| 2026-04-20 15:11 | 38.36051 | 45.52561 | 35832 ft | 505 kts | 329° |
| 2026-04-20 15:11 | 38.41726 | 45.47669 | 35821 ft | 486 kts | 309° |
| 2026-04-20 15:12 | 38.45629 | 45.40860 | 35815 ft | 469 kts | 290° |
| 2026-04-20 15:12 | 38.48452 | 45.33427 | 35806 ft | 469 kts | 290° |
| 2026-04-20 15:13 | 38.51353 | 45.25891 | 35817 ft | 471 kts | 290° |
| 2026-04-20 15:13 | 38.54212 | 45.18429 | 35818 ft | 471 kts | 290° |
| 2026-04-20 15:14 | 38.57043 | 45.11007 | 35823 ft | 471 kts | 290° |
| 2026-04-20 15:14 | 38.59945 | 45.03373 | 35833 ft | 472 kts | 290° |
| 2026-04-20 15:15 | 38.62812 | 44.95813 | 35835 ft | 472 kts | 290° |
| 2026-04-20 15:15 | 38.65670 | 44.88255 | 35846 ft | 473 kts | 290° |
| 2026-04-20 15:16 | 38.68528 | 44.80681 | 35854 ft | 472 kts | 290° |
| 2026-04-20 15:16 | 38.71383 | 44.73095 | 35854 ft | 473 kts | 290° |
| 2026-04-20 15:17 | 38.74233 | 44.65503 | 35867 ft | 473 kts | 290° |
| 2026-04-20 15:17 | 38.77086 | 44.57886 | 35857 ft | 473 kts | 290° |
| 2026-04-20 15:18 | 38.79925 | 44.50283 | 35857 ft | 473 kts | 290° |
| 2026-04-20 15:18 | 38.82756 | 44.42687 | 35858 ft | 472 kts | 289° |
| 2026-04-20 15:19 | 38.85109 | 44.36360 | 35861 ft | 473 kts | 289° |
| 2026-04-20 15:19 | 38.87941 | 44.28721 | 35863 ft | 475 kts | 289° |
| 2026-04-20 15:20 | 38.91234 | 44.19817 | 35881 ft | 477 kts | 289° |
| 2026-04-20 15:20 | 38.94062 | 44.12095 | 35896 ft | 478 kts | 289° |
| 2026-04-20 15:21 | 38.96411 | 44.05670 | 35902 ft | 479 kts | 289° |
| 2026-04-20 15:21 | 38.99266 | 43.97861 | 35908 ft | 479 kts | 289° |
| 2026-04-20 15:22 | 39.02077 | 43.90146 | 35902 ft | 479 kts | 289° |
| 2026-04-20 15:22 | 39.04899 | 43.82376 | 35900 ft | 479 kts | 289° |
| 2026-04-20 15:23 | 39.07714 | 43.74608 | 35906 ft | 479 kts | 289° |
| 2026-04-20 15:23 | 39.10467 | 43.66987 | 35901 ft | 480 kts | 289° |
| 2026-04-20 15:24 | 39.13273 | 43.59202 | 35902 ft | 480 kts | 289° |
| 2026-04-20 15:24 | 39.16078 | 43.51400 | 35907 ft | 480 kts | 289° |
| 2026-04-20 15:25 | 39.18883 | 43.43574 | 35915 ft | 481 kts | 289° |
| 2026-04-20 15:25 | 39.21683 | 43.35743 | 35917 ft | 481 kts | 289° |
| 2026-04-20 15:26 | 39.24479 | 43.27903 | 35921 ft | 481 kts | 289° |
| 2026-04-20 15:26 | 39.27272 | 43.20047 | 35924 ft | 482 kts | 289° |
| 2026-04-20 15:27 | 39.30062 | 43.12183 | 35918 ft | 482 kts | 289° |
| 2026-04-20 15:27 | 39.32845 | 43.04314 | 35907 ft | 482 kts | 289° |
| 2026-04-20 15:28 | 39.35623 | 42.96440 | 35906 ft | 482 kts | 289° |
| 2026-04-20 15:28 | 39.38387 | 42.88582 | 35902 ft | 482 kts | 289° |
| 2026-04-20 15:29 | 39.41157 | 42.80688 | 35891 ft | 482 kts | 289° |
| 2026-04-20 15:29 | 39.43921 | 42.72789 | 35884 ft | 483 kts | 289° |
| 2026-04-20 15:30 | 39.46683 | 42.64874 | 35888 ft | 483 kts | 289° |
| 2026-04-20 15:30 | 39.49439 | 42.56953 | 35892 ft | 483 kts | 289° |
| 2026-04-20 15:31 | 39.52169 | 42.49084 | 35895 ft | 483 kts | 289° |
| 2026-04-20 15:31 | 39.54927 | 42.41115 | 35903 ft | 484 kts | 289° |
| 2026-04-20 15:32 | 39.57675 | 42.33155 | 35910 ft | 484 kts | 289° |
| 2026-04-20 15:32 | 39.60418 | 42.25187 | 35914 ft | 485 kts | 289° |
| 2026-04-20 15:33 | 39.63160 | 42.17196 | 35920 ft | 485 kts | 289° |
| 2026-04-20 15:33 | 39.65882 | 42.09245 | 35922 ft | 485 kts | 288° |
| 2026-04-20 15:34 | 39.68622 | 42.01215 | 35925 ft | 486 kts | 288° |
| 2026-04-20 15:34 | 39.71351 | 41.93198 | 35927 ft | 486 kts | 288° |
| 2026-04-20 15:35 | 39.74079 | 41.85162 | 35921 ft | 486 kts | 288° |
| 2026-04-20 15:35 | 39.76796 | 41.77131 | 35923 ft | 486 kts | 288° |
| 2026-04-20 15:36 | 39.79509 | 41.69092 | 35932 ft | 487 kts | 289° |
| 2026-04-20 15:36 | 39.82224 | 41.61024 | 35935 ft | 487 kts | 289° |
| 2026-04-20 15:37 | 39.84934 | 41.52948 | 35918 ft | 487 kts | 289° |
| 2026-04-20 15:37 | 39.87635 | 41.44878 | 35910 ft | 487 kts | 289° |
| 2026-04-20 15:38 | 39.90337 | 41.36780 | 35916 ft | 487 kts | 289° |
| 2026-04-20 15:38 | 39.93028 | 41.28693 | 35917 ft | 487 kts | 289° |
| 2026-04-20 15:39 | 39.95676 | 41.20702 | 35972 ft | 488 kts | 288° |
| 2026-04-20 15:39 | 39.96924 | 41.16541 | 36407 ft | 486 kts | 287° |
| 2026-04-20 15:39 | 39.98125 | 41.12644 | 36887 ft | 484 kts | 288° |
| 2026-04-20 15:39 | 39.99393 | 41.08597 | 37362 ft | 482 kts | 288° |
| 2026-04-20 15:40 | 40.00656 | 41.04552 | 37800 ft | 481 kts | 288° |
| 2026-04-20 15:40 | 40.01912 | 41.00502 | 37912 ft | 484 kts | 288° |
| 2026-04-20 15:40 | 40.03159 | 40.96466 | 37911 ft | 476 kts | 288° |
| 2026-04-20 15:41 | 40.05586 | 40.88562 | 37913 ft | 477 kts | 288° |
| 2026-04-20 15:41 | 40.08076 | 40.80417 | 37914 ft | 477 kts | 288° |
| 2026-04-20 15:42 | 40.10517 | 40.72414 | 37913 ft | 477 kts | 288° |
| 2026-04-20 15:42 | 40.12951 | 40.64410 | 37922 ft | 478 kts | 288° |
| 2026-04-20 15:43 | 40.15417 | 40.56279 | 37938 ft | 479 kts | 288° |
| 2026-04-20 15:43 | 40.17866 | 40.48180 | 37947 ft | 479 kts | 288° |
| 2026-04-20 15:44 | 40.20309 | 40.40072 | 37962 ft | 479 kts | 289° |
| 2026-04-20 15:44 | 40.22747 | 40.31959 | 37971 ft | 479 kts | 289° |
| 2026-04-20 15:45 | 40.25181 | 40.23834 | 37982 ft | 479 kts | 289° |
| 2026-04-20 15:45 | 40.27607 | 40.15708 | 37987 ft | 479 kts | 289° |
| 2026-04-20 15:46 | 40.30023 | 40.07595 | 37998 ft | 478 kts | 289° |
| 2026-04-20 15:46 | 40.32431 | 39.99484 | 37998 ft | 477 kts | 289° |
| 2026-04-20 15:47 | 40.34828 | 39.91386 | 37995 ft | 476 kts | 289° |
| 2026-04-20 15:47 | 40.37217 | 39.83286 | 38007 ft | 476 kts | 289° |
| 2026-04-20 15:48 | 40.39601 | 39.75179 | 38012 ft | 476 kts | 289° |
| 2026-04-20 15:48 | 40.41964 | 39.67127 | 38026 ft | 476 kts | 289° |
| 2026-04-20 15:49 | 40.44328 | 39.59008 | 38021 ft | 476 kts | 289° |
| 2026-04-20 15:49 | 40.46685 | 39.50874 | 38025 ft | 477 kts | 289° |
| 2026-04-20 15:50 | 40.49040 | 39.42730 | 38035 ft | 477 kts | 289° |
| 2026-04-20 15:50 | 40.51388 | 39.34585 | 38037 ft | 477 kts | 289° |
| 2026-04-20 15:51 | 40.53734 | 39.26425 | 38041 ft | 477 kts | 289° |
| 2026-04-20 15:51 | 40.56072 | 39.18265 | 38045 ft | 477 kts | 289° |
| 2026-04-20 15:52 | 40.58407 | 39.10086 | 38052 ft | 477 kts | 289° |
| 2026-04-20 15:52 | 40.60733 | 39.01914 | 38049 ft | 478 kts | 289° |
| 2026-04-20 15:53 | 40.64221 | 38.89619 | 38065 ft | 478 kts | 289° |
| 2026-04-20 15:53 | 40.66509 | 38.81392 | 38068 ft | 478 kts | 288° |
| 2026-04-20 15:54 | 40.68776 | 38.73185 | 38077 ft | 478 kts | 288° |
| 2026-04-20 15:54 | 40.71030 | 38.65019 | 38076 ft | 478 kts | 288° |
| 2026-04-20 15:55 | 40.73316 | 38.56711 | 38079 ft | 478 kts | 288° |
| 2026-04-20 15:55 | 40.75563 | 38.48518 | 38067 ft | 478 kts | 288° |
| 2026-04-20 15:56 | 40.77818 | 38.40268 | 38080 ft | 478 kts | 288° |
| 2026-04-20 15:56 | 40.80062 | 38.32033 | 38090 ft | 477 kts | 288° |
| 2026-04-20 15:57 | 40.82301 | 38.23785 | 38086 ft | 477 kts | 288° |
| 2026-04-20 15:57 | 40.84532 | 38.15542 | 38068 ft | 477 kts | 288° |
| 2026-04-20 15:58 | 40.86757 | 38.07295 | 38072 ft | 476 kts | 288° |
| 2026-04-20 15:58 | 40.88974 | 37.99049 | 38070 ft | 476 kts | 288° |
| 2026-04-20 15:59 | 40.91164 | 37.90881 | 38072 ft | 476 kts | 288° |
| 2026-04-20 15:59 | 40.93391 | 37.82542 | 38076 ft | 476 kts | 288° |
| 2026-04-20 16:00 | 40.95587 | 37.74290 | 38076 ft | 475 kts | 288° |
| 2026-04-20 16:00 | 40.97770 | 37.66066 | 38062 ft | 474 kts | 288° |
| 2026-04-20 16:01 | 40.99949 | 37.57823 | 38067 ft | 474 kts | 288° |
| 2026-04-20 16:01 | 41.02061 | 37.49808 | 38081 ft | 473 kts | 288° |
| 2026-04-20 16:02 | 41.04203 | 37.41653 | 38075 ft | 472 kts | 288° |
| 2026-04-20 16:02 | 41.06362 | 37.33409 | 38070 ft | 471 kts | 288° |
| 2026-04-20 16:03 | 41.08496 | 37.25229 | 38072 ft | 470 kts | 288° |
| 2026-04-20 16:03 | 41.10627 | 37.17037 | 38071 ft | 469 kts | 288° |
| 2026-04-20 16:04 | 41.12638 | 37.09278 | 38068 ft | 469 kts | 288° |
| 2026-04-20 16:04 | 41.14752 | 37.01095 | 38062 ft | 469 kts | 288° |
| 2026-04-20 16:05 | 41.16844 | 36.92970 | 38066 ft | 468 kts | 288° |
| 2026-04-20 16:05 | 41.18957 | 36.84735 | 38070 ft | 468 kts | 288° |
| 2026-04-20 16:06 | 41.21051 | 36.76547 | 38069 ft | 468 kts | 288° |
| 2026-04-20 16:06 | 41.23141 | 36.68344 | 38072 ft | 468 kts | 287° |
| 2026-04-20 16:07 | 41.25223 | 36.60150 | 38075 ft | 469 kts | 287° |
| 2026-04-20 16:07 | 41.26914 | 36.53485 | 38076 ft | 469 kts | 287° |
| 2026-04-20 16:08 | 41.29339 | 36.43977 | 38076 ft | 469 kts | 288° |
| 2026-04-20 16:08 | 41.31436 | 36.35763 | 38073 ft | 469 kts | 287° |
| 2026-04-20 16:09 | 41.32916 | 36.29939 | 38071 ft | 469 kts | 287° |
| 2026-04-20 16:09 | 41.34796 | 36.22514 | 38063 ft | 469 kts | 287° |
| 2026-04-20 16:10 | 41.36871 | 36.14295 | 38053 ft | 469 kts | 287° |
| 2026-04-20 16:10 | 41.38941 | 36.06061 | 38049 ft | 469 kts | 287° |
| 2026-04-20 16:11 | 41.41001 | 35.97842 | 38045 ft | 469 kts | 287° |
| 2026-04-20 16:11 | 41.42998 | 35.89850 | 38048 ft | 469 kts | 287° |
| 2026-04-20 16:12 | 41.45050 | 35.81604 | 38042 ft | 468 kts | 287° |
| 2026-04-20 16:12 | 41.47096 | 35.73361 | 38040 ft | 468 kts | 287° |
| 2026-04-20 16:13 | 41.49132 | 35.65122 | 38034 ft | 468 kts | 287° |
| 2026-04-20 16:13 | 41.51162 | 35.56881 | 38043 ft | 468 kts | 287° |
| 2026-04-20 16:14 | 41.53171 | 35.48694 | 38036 ft | 468 kts | 287° |
| 2026-04-20 16:14 | 41.55191 | 35.40440 | 38031 ft | 468 kts | 287° |
| 2026-04-20 16:15 | 41.57202 | 35.32188 | 38039 ft | 468 kts | 287° |
| 2026-04-20 16:15 | 41.59210 | 35.23918 | 38043 ft | 468 kts | 287° |
| 2026-04-20 16:16 | 41.61210 | 35.15654 | 38041 ft | 468 kts | 287° |
| 2026-04-20 16:16 | 41.63206 | 35.07378 | 38031 ft | 468 kts | 287° |
| 2026-04-20 16:17 | 41.65191 | 34.99115 | 38030 ft | 467 kts | 287° |
| 2026-04-20 16:17 | 41.67173 | 34.90837 | 38032 ft | 467 kts | 287° |
| 2026-04-20 16:18 | 41.69114 | 34.82701 | 38027 ft | 467 kts | 287° |
| 2026-04-20 16:18 | 41.71084 | 34.74410 | 38033 ft | 470 kts | 287° |
| 2026-04-20 16:19 | 41.73092 | 34.65928 | 38030 ft | 486 kts | 286° |
| 2026-04-20 16:19 | 41.75108 | 34.57398 | 38036 ft | 484 kts | 286° |
| 2026-04-20 16:20 | 41.77116 | 34.48847 | 38031 ft | 484 kts | 286° |
| 2026-04-20 16:20 | 41.79142 | 34.40192 | 38019 ft | 484 kts | 286° |
| 2026-04-20 16:21 | 41.81138 | 34.31635 | 38020 ft | 484 kts | 286° |
| 2026-04-20 16:21 | 41.83143 | 34.23005 | 38020 ft | 485 kts | 286° |
| 2026-04-20 16:22 | 41.85138 | 34.14385 | 38021 ft | 484 kts | 286° |
| 2026-04-20 16:22 | 41.87126 | 34.05760 | 38030 ft | 484 kts | 286° |
| 2026-04-20 16:23 | 41.89110 | 33.97122 | 38023 ft | 485 kts | 286° |
| 2026-04-20 16:23 | 41.91088 | 33.88475 | 38028 ft | 485 kts | 286° |
| 2026-04-20 16:24 | 41.93058 | 33.79832 | 38030 ft | 484 kts | 286° |
| 2026-04-20 16:24 | 41.95006 | 33.71253 | 38025 ft | 484 kts | 286° |
| 2026-04-20 16:25 | 41.96781 | 33.62593 | 38029 ft | 485 kts | 283° |
| 2026-04-20 16:25 | 41.98419 | 33.53798 | 38026 ft | 486 kts | 284° |
| 2026-04-20 16:26 | 42.00082 | 33.45025 | 38020 ft | 485 kts | 284° |
| 2026-04-20 16:26 | 42.01757 | 33.36247 | 38021 ft | 486 kts | 284° |
| 2026-04-20 16:27 | 42.03433 | 33.27437 | 38021 ft | 485 kts | 284° |
| 2026-04-20 16:27 | 42.05102 | 33.18623 | 38021 ft | 486 kts | 284° |
| 2026-04-20 16:28 | 42.06756 | 33.09842 | 38018 ft | 486 kts | 284° |
| 2026-04-20 16:28 | 42.08482 | 33.01035 | 38019 ft | 486 kts | 285° |
| 2026-04-20 16:29 | 42.10305 | 32.92280 | 38017 ft | 486 kts | 285° |
| 2026-04-20 16:29 | 42.12106 | 32.83504 | 38019 ft | 486 kts | 285° |
| 2026-04-20 16:30 | 42.13889 | 32.74724 | 38018 ft | 486 kts | 285° |
| 2026-04-20 16:30 | 42.15665 | 32.65924 | 38019 ft | 486 kts | 285° |
| 2026-04-20 16:31 | 42.17433 | 32.57128 | 38016 ft | 486 kts | 285° |
| 2026-04-20 16:31 | 42.19194 | 32.48312 | 38011 ft | 487 kts | 285° |
| 2026-04-20 16:32 | 42.20947 | 32.39496 | 38014 ft | 486 kts | 285° |
| 2026-04-20 16:32 | 42.22695 | 32.30669 | 38014 ft | 487 kts | 285° |
| 2026-04-20 16:33 | 42.24437 | 32.21837 | 38012 ft | 487 kts | 285° |
| 2026-04-20 16:33 | 42.26170 | 32.12985 | 38011 ft | 488 kts | 285° |
| 2026-04-20 16:34 | 42.27881 | 32.04214 | 38008 ft | 487 kts | 285° |
| 2026-04-20 16:34 | 42.29613 | 31.95346 | 38012 ft | 488 kts | 285° |
| 2026-04-20 16:35 | 42.31338 | 31.86471 | 38010 ft | 488 kts | 285° |
| 2026-04-20 16:35 | 42.33051 | 31.77611 | 38008 ft | 488 kts | 285° |
| 2026-04-20 16:36 | 42.34761 | 31.68727 | 38008 ft | 488 kts | 285° |
| 2026-04-20 16:36 | 42.36464 | 31.59836 | 38007 ft | 488 kts | 285° |
| 2026-04-20 16:37 | 42.38160 | 31.50943 | 38007 ft | 489 kts | 285° |
| 2026-04-20 16:37 | 42.39851 | 31.42031 | 38003 ft | 489 kts | 285° |
| 2026-04-20 16:38 | 42.41533 | 31.33133 | 37999 ft | 489 kts | 285° |
| 2026-04-20 16:38 | 42.43215 | 31.24185 | 37997 ft | 490 kts | 285° |
| 2026-04-20 16:39 | 42.44885 | 31.15268 | 37996 ft | 489 kts | 285° |
| 2026-04-20 16:39 | 42.46549 | 31.06331 | 37994 ft | 489 kts | 285° |
| 2026-04-20 16:40 | 42.48202 | 30.97397 | 37989 ft | 489 kts | 285° |
| 2026-04-20 16:40 | 42.49850 | 30.88454 | 37983 ft | 489 kts | 285° |
| 2026-04-20 16:41 | 42.51214 | 30.81015 | 37993 ft | 489 kts | 285° |
| 2026-04-20 16:41 | 42.53099 | 30.70693 | 37993 ft | 489 kts | 285° |
| 2026-04-20 16:42 | 42.54724 | 30.61747 | 37989 ft | 489 kts | 285° |
| 2026-04-20 16:42 | 42.56342 | 30.52794 | 37989 ft | 489 kts | 285° |
| 2026-04-20 16:43 | 42.57953 | 30.43840 | 37980 ft | 488 kts | 285° |
| 2026-04-20 16:43 | 42.59549 | 30.34965 | 37971 ft | 488 kts | 286° |
| 2026-04-20 16:44 | 42.61954 | 30.26327 | 37966 ft | 485 kts | 297° |
| 2026-04-20 16:44 | 42.65521 | 30.18581 | 37965 ft | 484 kts | 308° |
| 2026-04-20 16:45 | 42.69648 | 30.11349 | 37966 ft | 484 kts | 308° |
| 2026-04-20 16:45 | 42.73723 | 30.04130 | 37963 ft | 484 kts | 308° |
| 2026-04-20 16:46 | 42.77815 | 29.96876 | 37961 ft | 483 kts | 308° |
| 2026-04-20 16:46 | 42.81906 | 29.89609 | 37956 ft | 484 kts | 308° |
| 2026-04-20 16:47 | 42.85960 | 29.82391 | 37951 ft | 485 kts | 308° |
| 2026-04-20 16:47 | 42.90049 | 29.75093 | 37952 ft | 484 kts | 308° |
| 2026-04-20 16:48 | 42.94127 | 29.67796 | 37944 ft | 483 kts | 308° |
| 2026-04-20 16:48 | 42.98193 | 29.60503 | 37941 ft | 484 kts | 308° |
| 2026-04-20 16:49 | 43.02265 | 29.53181 | 37937 ft | 483 kts | 308° |
| 2026-04-20 16:49 | 43.06180 | 29.46123 | 37934 ft | 482 kts | 308° |
| 2026-04-20 16:50 | 43.10234 | 29.38799 | 37934 ft | 483 kts | 308° |
| 2026-04-20 16:50 | 43.14290 | 29.31452 | 37930 ft | 483 kts | 308° |
| 2026-04-20 16:51 | 43.18336 | 29.24105 | 37925 ft | 483 kts | 307° |
| 2026-04-20 16:51 | 43.22376 | 29.16751 | 37923 ft | 484 kts | 307° |
| 2026-04-20 16:52 | 43.26402 | 29.09405 | 37921 ft | 482 kts | 307° |
| 2026-04-20 16:52 | 43.29756 | 29.03269 | 37918 ft | 483 kts | 307° |
| 2026-04-20 16:53 | 43.34383 | 28.94785 | 37916 ft | 481 kts | 307° |
| 2026-04-20 16:53 | 43.38387 | 28.87424 | 37914 ft | 481 kts | 307° |
| 2026-04-20 16:54 | 43.42361 | 28.80099 | 37905 ft | 480 kts | 307° |
| 2026-04-20 16:54 | 43.45704 | 28.73923 | 37910 ft | 481 kts | 307° |
| 2026-04-20 16:55 | 43.50340 | 28.65337 | 37908 ft | 481 kts | 307° |
| 2026-04-20 16:55 | 43.54323 | 28.57939 | 37899 ft | 481 kts | 307° |
| 2026-04-20 16:56 | 43.57632 | 28.51781 | 37898 ft | 481 kts | 307° |
| 2026-04-20 16:56 | 43.61602 | 28.44375 | 37891 ft | 480 kts | 307° |
| 2026-04-20 16:57 | 43.65386 | 28.37296 | 37879 ft | 480 kts | 307° |
| 2026-04-20 16:57 | 43.69398 | 28.29774 | 37873 ft | 480 kts | 307° |
| 2026-04-20 16:58 | 43.73360 | 28.22327 | 37870 ft | 480 kts | 307° |
| 2026-04-20 16:58 | 43.77294 | 28.14912 | 37866 ft | 480 kts | 307° |
| 2026-04-20 16:59 | 43.81230 | 28.07477 | 37862 ft | 480 kts | 307° |
| 2026-04-20 16:59 | 43.85169 | 28.00016 | 37847 ft | 479 kts | 307° |
| 2026-04-20 17:00 | 43.91063 | 27.88817 | 37833 ft | 479 kts | 307° |
| 2026-04-20 17:01 | 43.94988 | 27.81335 | 37857 ft | 479 kts | 307° |
| 2026-04-20 17:01 | 43.98904 | 27.73850 | 37861 ft | 480 kts | 307° |
| 2026-04-20 17:02 | 44.02819 | 27.66349 | 37838 ft | 480 kts | 307° |
| 2026-04-20 17:02 | 44.06702 | 27.58889 | 37823 ft | 479 kts | 306° |
| 2026-04-20 17:03 | 44.10606 | 27.51371 | 37819 ft | 480 kts | 306° |
| 2026-04-20 17:03 | 44.14509 | 27.43834 | 37827 ft | 479 kts | 306° |
| 2026-04-20 17:04 | 44.18386 | 27.36329 | 37847 ft | 480 kts | 306° |
| 2026-04-20 17:04 | 44.22278 | 27.28775 | 37848 ft | 479 kts | 306° |
| 2026-04-20 17:05 | 44.26152 | 27.21234 | 37827 ft | 478 kts | 306° |
| 2026-04-20 17:05 | 44.30016 | 27.13697 | 37816 ft | 478 kts | 306° |
| 2026-04-20 17:06 | 44.33858 | 27.06180 | 37816 ft | 477 kts | 306° |
| 2026-04-20 17:06 | 44.37709 | 26.98628 | 37824 ft | 478 kts | 306° |
| 2026-04-20 17:07 | 44.41561 | 26.91054 | 37844 ft | 478 kts | 306° |
| 2026-04-20 17:07 | 44.45406 | 26.83473 | 37829 ft | 478 kts | 306° |
| 2026-04-20 17:08 | 44.49243 | 26.75888 | 37827 ft | 478 kts | 306° |
| 2026-04-20 17:08 | 44.53064 | 26.68318 | 37830 ft | 477 kts | 306° |
| 2026-04-20 17:09 | 44.56900 | 26.60707 | 37825 ft | 476 kts | 306° |
| 2026-04-20 17:09 | 44.60482 | 26.52904 | 37828 ft | 476 kts | 300° |
| 2026-04-20 17:10 | 44.63653 | 26.44734 | 37827 ft | 477 kts | 300° |
| 2026-04-20 17:10 | 44.66840 | 26.36679 | 37828 ft | 476 kts | 300° |
| 2026-04-20 17:11 | 44.70012 | 26.28622 | 37828 ft | 475 kts | 300° |
| 2026-04-20 17:11 | 44.73168 | 26.20560 | 37831 ft | 472 kts | 299° |
| 2026-04-20 17:12 | 44.76326 | 26.12456 | 37828 ft | 472 kts | 299° |
| 2026-04-20 17:12 | 44.79452 | 26.04409 | 37830 ft | 473 kts | 299° |
| 2026-04-20 17:13 | 44.82607 | 25.96263 | 37829 ft | 473 kts | 299° |
| 2026-04-20 17:13 | 44.85748 | 25.88129 | 37834 ft | 473 kts | 299° |
| 2026-04-20 17:14 | 44.88883 | 25.79989 | 37835 ft | 472 kts | 299° |
| 2026-04-20 17:14 | 44.92009 | 25.71846 | 37841 ft | 472 kts | 299° |
| 2026-04-20 17:15 | 44.95132 | 25.63689 | 37838 ft | 473 kts | 299° |
| 2026-04-20 17:15 | 44.98258 | 25.55498 | 37845 ft | 473 kts | 298° |
| 2026-04-20 17:16 | 45.01311 | 25.47476 | 37845 ft | 472 kts | 298° |
| 2026-04-20 17:16 | 45.04417 | 25.39288 | 37853 ft | 473 kts | 298° |
| 2026-04-20 17:17 | 45.07509 | 25.31116 | 37860 ft | 472 kts | 298° |
| 2026-04-20 17:17 | 45.10613 | 25.22886 | 37860 ft | 472 kts | 298° |
| 2026-04-20 17:18 | 45.13675 | 25.14744 | 37860 ft | 473 kts | 298° |
| 2026-04-20 17:18 | 45.16780 | 25.06463 | 37869 ft | 472 kts | 298° |
| 2026-04-20 17:19 | 45.19834 | 24.98294 | 37873 ft | 473 kts | 298° |
| 2026-04-20 17:19 | 45.22905 | 24.90053 | 37881 ft | 473 kts | 298° |
| 2026-04-20 17:20 | 45.25983 | 24.81772 | 37875 ft | 474 kts | 298° |
| 2026-04-20 17:20 | 45.29050 | 24.73492 | 37889 ft | 474 kts | 298° |
| 2026-04-20 17:21 | 45.32109 | 24.65208 | 37888 ft | 474 kts | 297° |
| 2026-04-20 17:21 | 45.35147 | 24.56960 | 37899 ft | 473 kts | 297° |
| 2026-04-20 17:22 | 45.38195 | 24.48656 | 37906 ft | 474 kts | 297° |
| 2026-04-20 17:22 | 45.41237 | 24.40345 | 37904 ft | 474 kts | 297° |
| 2026-04-20 17:23 | 45.44248 | 24.32091 | 37912 ft | 471 kts | 297° |
| 2026-04-20 17:23 | 45.47283 | 24.23748 | 37915 ft | 472 kts | 297° |
| 2026-04-20 17:24 | 45.50292 | 24.15450 | 37929 ft | 470 kts | 297° |
| 2026-04-20 17:24 | 45.53287 | 24.07164 | 37929 ft | 468 kts | 297° |
| 2026-04-20 17:25 | 45.56238 | 23.98983 | 37924 ft | 468 kts | 296° |
| 2026-04-20 17:25 | 45.59214 | 23.90696 | 37930 ft | 469 kts | 296° |
| 2026-04-20 17:26 | 45.62170 | 23.82446 | 37933 ft | 466 kts | 296° |
| 2026-04-20 17:26 | 45.65121 | 23.74182 | 37938 ft | 465 kts | 296° |
| 2026-04-20 17:27 | 45.68017 | 23.66049 | 37949 ft | 463 kts | 296° |
| 2026-04-20 17:27 | 45.70931 | 23.57840 | 37952 ft | 463 kts | 296° |
| 2026-04-20 17:28 | 45.73840 | 23.49619 | 37954 ft | 462 kts | 296° |
| 2026-04-20 17:28 | 45.76741 | 23.41394 | 37951 ft | 463 kts | 296° |
| 2026-04-20 17:29 | 45.79636 | 23.33163 | 37950 ft | 463 kts | 295° |
| 2026-04-20 17:29 | 45.82520 | 23.24936 | 37948 ft | 462 kts | 295° |
| 2026-04-20 17:30 | 45.85399 | 23.16700 | 37946 ft | 462 kts | 295° |
| 2026-04-20 17:30 | 45.87934 | 23.09426 | 37943 ft | 462 kts | 295° |
| 2026-04-20 17:31 | 45.90799 | 23.01183 | 37945 ft | 461 kts | 295° |
| 2026-04-20 17:31 | 45.93640 | 22.92979 | 37941 ft | 462 kts | 295° |
| 2026-04-20 17:32 | 45.96506 | 22.84682 | 37944 ft | 461 kts | 295° |
| 2026-04-20 17:32 | 45.99308 | 22.76545 | 37940 ft | 461 kts | 295° |
| 2026-04-20 17:33 | 46.02146 | 22.68276 | 37941 ft | 462 kts | 295° |
| 2026-04-20 17:33 | 46.04983 | 22.59983 | 37939 ft | 462 kts | 295° |
| 2026-04-20 17:34 | 46.07815 | 22.51680 | 37940 ft | 462 kts | 294° |
| 2026-04-20 17:34 | 46.10604 | 22.43477 | 37934 ft | 464 kts | 294° |
| 2026-04-20 17:35 | 46.13434 | 22.35126 | 37935 ft | 463 kts | 294° |
| 2026-04-20 17:35 | 46.16267 | 22.26743 | 37937 ft | 465 kts | 294° |
| 2026-04-20 17:36 | 46.19095 | 22.18346 | 37937 ft | 467 kts | 294° |
| 2026-04-20 17:36 | 46.21929 | 22.09904 | 37940 ft | 468 kts | 294° |
| 2026-04-20 17:37 | 46.24760 | 22.01443 | 37938 ft | 469 kts | 294° |
| 2026-04-20 17:37 | 46.27583 | 21.92978 | 37938 ft | 469 kts | 294° |
| 2026-04-20 17:38 | 46.30396 | 21.84519 | 37934 ft | 470 kts | 294° |
| 2026-04-20 17:38 | 46.33213 | 21.76018 | 37935 ft | 471 kts | 294° |
| 2026-04-20 17:39 | 46.36048 | 21.67436 | 37945 ft | 472 kts | 294° |
| 2026-04-20 17:39 | 46.38872 | 21.58856 | 37935 ft | 473 kts | 294° |
| 2026-04-20 17:40 | 46.41685 | 21.50285 | 37946 ft | 473 kts | 294° |
| 2026-04-20 17:40 | 46.44505 | 21.41672 | 37945 ft | 473 kts | 294° |
| 2026-04-20 17:41 | 46.46849 | 21.34503 | 37946 ft | 472 kts | 294° |
| 2026-04-20 17:41 | 46.49614 | 21.25923 | 37945 ft | 473 kts | 293° |
| 2026-04-20 17:42 | 46.52211 | 21.17137 | 37941 ft | 472 kts | 293° |
| 2026-04-20 17:42 | 46.54881 | 21.08404 | 37938 ft | 471 kts | 293° |
| 2026-04-20 17:43 | 46.57501 | 20.99755 | 37949 ft | 471 kts | 293° |
| 2026-04-20 17:43 | 46.59886 | 20.91810 | 37934 ft | 471 kts | 293° |
| 2026-04-20 17:44 | 46.62082 | 20.84460 | 37953 ft | 470 kts | 293° |
| 2026-04-20 17:44 | 46.64602 | 20.75997 | 37950 ft | 470 kts | 293° |
| 2026-04-20 17:45 | 46.67194 | 20.67261 | 37954 ft | 470 kts | 292° |
| 2026-04-20 17:45 | 46.69611 | 20.59293 | 37937 ft | 470 kts | 294° |
| 2026-04-20 17:46 | 46.72185 | 20.50512 | 37942 ft | 471 kts | 292° |
| 2026-04-20 17:46 | 46.74752 | 20.41844 | 37964 ft | 472 kts | 294° |
| 2026-04-20 17:47 | 46.77412 | 20.33110 | 37960 ft | 471 kts | 294° |
| 2026-04-20 17:47 | 46.80057 | 20.24455 | 37946 ft | 471 kts | 294° |
| 2026-04-20 17:48 | 46.82744 | 20.15620 | 37945 ft | 472 kts | 294° |
| 2026-04-20 17:48 | 46.85246 | 20.07351 | 37952 ft | 473 kts | 294° |
| 2026-04-20 17:49 | 46.87811 | 19.98840 | 37971 ft | 473 kts | 294° |
| 2026-04-20 17:49 | 46.90451 | 19.90049 | 37983 ft | 472 kts | 294° |
| 2026-04-20 17:50 | 46.93066 | 19.81309 | 37979 ft | 472 kts | 294° |
| 2026-04-20 17:50 | 46.95706 | 19.72457 | 37958 ft | 472 kts | 294° |
| 2026-04-20 17:51 | 46.98306 | 19.63708 | 37952 ft | 472 kts | 294° |
| 2026-04-20 17:51 | 47.00916 | 19.54892 | 37959 ft | 471 kts | 294° |
| 2026-04-20 17:52 | 47.03516 | 19.46079 | 37976 ft | 471 kts | 294° |
| 2026-04-20 17:52 | 47.06106 | 19.37267 | 37984 ft | 470 kts | 293° |
| 2026-04-20 17:53 | 47.08686 | 19.28462 | 37986 ft | 470 kts | 293° |
| 2026-04-20 17:53 | 47.11265 | 19.19622 | 37968 ft | 470 kts | 293° |
| 2026-04-20 17:54 | 47.13827 | 19.10816 | 37969 ft | 470 kts | 293° |
| 2026-04-20 17:54 | 47.16385 | 19.01985 | 37978 ft | 469 kts | 293° |
| 2026-04-20 17:55 | 47.18935 | 18.93156 | 37982 ft | 469 kts | 293° |
| 2026-04-20 17:55 | 47.21480 | 18.84308 | 37982 ft | 469 kts | 293° |
| 2026-04-20 17:56 | 47.24012 | 18.75476 | 37982 ft | 469 kts | 293° |
| 2026-04-20 17:56 | 47.26469 | 18.66873 | 37983 ft | 468 kts | 293° |
| 2026-04-20 17:57 | 47.28984 | 18.58035 | 37986 ft | 467 kts | 293° |
| 2026-04-20 17:57 | 47.31493 | 18.49185 | 37988 ft | 468 kts | 293° |
| 2026-04-20 17:58 | 47.33966 | 18.40433 | 37989 ft | 468 kts | 293° |
| 2026-04-20 17:58 | 47.36446 | 18.31621 | 37985 ft | 468 kts | 292° |
| 2026-04-20 17:59 | 47.38931 | 18.22763 | 37995 ft | 469 kts | 292° |
| 2026-04-20 17:59 | 47.41410 | 18.13890 | 37993 ft | 468 kts | 292° |
| 2026-04-20 18:00 | 47.43878 | 18.05024 | 37989 ft | 467 kts | 292° |
| 2026-04-20 18:00 | 47.46340 | 17.96146 | 38005 ft | 466 kts | 292° |
| 2026-04-20 18:01 | 47.48795 | 17.87260 | 37988 ft | 466 kts | 292° |
| 2026-04-20 18:01 | 47.51238 | 17.78386 | 37985 ft | 466 kts | 292° |
| 2026-04-20 18:02 | 47.53675 | 17.69501 | 37993 ft | 466 kts | 292° |
| 2026-04-20 18:02 | 47.56091 | 17.60660 | 37993 ft | 466 kts | 292° |
| 2026-04-20 18:03 | 47.58527 | 17.51711 | 37993 ft | 466 kts | 292° |
| 2026-04-20 18:03 | 47.60942 | 17.42805 | 37987 ft | 466 kts | 292° |
| 2026-04-20 18:04 | 47.63353 | 17.33882 | 37984 ft | 466 kts | 292° |
| 2026-04-20 18:04 | 47.65757 | 17.24949 | 37994 ft | 466 kts | 292° |
| 2026-04-20 18:05 | 47.69337 | 17.11585 | 38009 ft | 466 kts | 292° |
| 2026-04-20 18:05 | 47.71719 | 17.02649 | 38010 ft | 467 kts | 292° |
| 2026-04-20 18:06 | 47.74113 | 16.93635 | 37989 ft | 467 kts | 292° |
| 2026-04-20 18:06 | 47.76486 | 16.84661 | 37982 ft | 466 kts | 292° |
| 2026-04-20 18:07 | 47.78854 | 16.75678 | 37985 ft | 467 kts | 291° |
| 2026-04-20 18:07 | 47.81219 | 16.66665 | 38010 ft | 468 kts | 291° |
| 2026-04-20 18:08 | 47.83585 | 16.57619 | 38016 ft | 467 kts | 291° |
| 2026-04-20 18:08 | 47.85931 | 16.48610 | 38019 ft | 467 kts | 291° |
| 2026-04-20 18:09 | 47.88271 | 16.39592 | 38001 ft | 467 kts | 291° |
| 2026-04-20 18:09 | 47.90609 | 16.30545 | 37996 ft | 467 kts | 291° |
| 2026-04-20 18:10 | 47.92934 | 16.21509 | 37998 ft | 466 kts | 291° |
| 2026-04-20 18:10 | 47.95252 | 16.12472 | 38017 ft | 467 kts | 291° |
| 2026-04-20 18:11 | 47.97557 | 16.03443 | 38019 ft | 466 kts | 291° |
| 2026-04-20 18:11 | 47.99861 | 15.94385 | 38022 ft | 466 kts | 291° |
| 2026-04-20 18:12 | 48.02136 | 15.85406 | 38015 ft | 465 kts | 291° |
| 2026-04-20 18:12 | 48.04423 | 15.76343 | 38000 ft | 465 kts | 291° |
| 2026-04-20 18:13 | 48.06701 | 15.67282 | 38002 ft | 467 kts | 291° |
| 2026-04-20 18:13 | 48.08969 | 15.58222 | 37999 ft | 466 kts | 291° |
| 2026-04-20 18:14 | 48.11241 | 15.49109 | 38024 ft | 468 kts | 290° |
| 2026-04-20 18:14 | 48.13506 | 15.39986 | 38028 ft | 467 kts | 290° |
| 2026-04-20 18:15 | 48.15761 | 15.30867 | 38026 ft | 468 kts | 290° |
| 2026-04-20 18:15 | 48.18008 | 15.21743 | 38015 ft | 467 kts | 290° |
| 2026-04-20 18:16 | 48.20255 | 15.12581 | 38024 ft | 467 kts | 290° |
| 2026-04-20 18:16 | 48.22489 | 15.03435 | 38024 ft | 468 kts | 290° |
| 2026-04-20 18:17 | 48.24675 | 14.94451 | 38031 ft | 469 kts | 290° |
| 2026-04-20 18:17 | 48.26899 | 14.85273 | 38026 ft | 469 kts | 290° |
| 2026-04-20 18:18 | 48.29114 | 14.76088 | 38022 ft | 469 kts | 290° |
| 2026-04-20 18:18 | 48.31331 | 14.66862 | 38028 ft | 469 kts | 290° |
| 2026-04-20 18:19 | 48.33536 | 14.57647 | 38025 ft | 471 kts | 290° |
| 2026-04-20 18:19 | 48.35743 | 14.48383 | 38023 ft | 470 kts | 290° |
| 2026-04-20 18:20 | 48.37943 | 14.39112 | 38023 ft | 471 kts | 290° |
| 2026-04-20 18:20 | 48.40140 | 14.29812 | 38027 ft | 470 kts | 290° |
| 2026-04-20 18:21 | 48.42326 | 14.20516 | 38026 ft | 471 kts | 290° |
| 2026-04-20 18:21 | 48.44504 | 14.11220 | 38030 ft | 472 kts | 290° |
| 2026-04-20 18:22 | 48.46666 | 14.01946 | 38032 ft | 470 kts | 290° |
| 2026-04-20 18:22 | 48.48829 | 13.92633 | 38035 ft | 471 kts | 289° |
| 2026-04-20 18:23 | 48.50988 | 13.83298 | 38043 ft | 471 kts | 289° |
| 2026-04-20 18:23 | 48.53140 | 13.73964 | 38046 ft | 471 kts | 289° |
| 2026-04-20 18:24 | 48.55292 | 13.64610 | 38048 ft | 472 kts | 289° |
| 2026-04-20 18:24 | 48.57436 | 13.55250 | 38047 ft | 472 kts | 289° |
| 2026-04-20 18:25 | 48.59702 | 13.45972 | 38052 ft | 472 kts | 295° |
| 2026-04-20 18:25 | 48.62730 | 13.37161 | 38049 ft | 472 kts | 298° |
| 2026-04-20 18:26 | 48.65747 | 13.28338 | 38051 ft | 473 kts | 296° |
| 2026-04-20 18:26 | 48.68657 | 13.19485 | 38052 ft | 472 kts | 296° |
| 2026-04-20 18:27 | 48.71554 | 13.10563 | 38058 ft | 472 kts | 296° |
| 2026-04-20 18:27 | 48.74440 | 13.01638 | 38058 ft | 473 kts | 296° |
| 2026-04-20 18:28 | 48.76845 | 12.94184 | 38059 ft | 474 kts | 296° |
| 2026-04-20 18:28 | 48.79734 | 12.85199 | 38059 ft | 475 kts | 296° |
| 2026-04-20 18:29 | 48.82612 | 12.76216 | 38062 ft | 475 kts | 296° |
| 2026-04-20 18:29 | 48.85515 | 12.67125 | 38063 ft | 474 kts | 296° |
| 2026-04-20 18:30 | 48.88368 | 12.58156 | 38063 ft | 474 kts | 296° |
| 2026-04-20 18:30 | 48.91225 | 12.49142 | 38067 ft | 475 kts | 296° |
| 2026-04-20 18:31 | 48.94014 | 12.40314 | 38070 ft | 474 kts | 296° |
| 2026-04-20 18:31 | 48.96864 | 12.31257 | 38067 ft | 474 kts | 296° |
| 2026-04-20 18:32 | 48.99684 | 12.22264 | 38071 ft | 475 kts | 296° |
| 2026-04-20 18:32 | 49.02527 | 12.13166 | 38076 ft | 475 kts | 296° |
| 2026-04-20 18:33 | 49.05309 | 12.04227 | 38082 ft | 475 kts | 296° |
| 2026-04-20 18:33 | 49.08125 | 11.95149 | 38082 ft | 476 kts | 296° |
| 2026-04-20 18:34 | 49.10841 | 11.86361 | 38084 ft | 475 kts | 295° |
| 2026-04-20 18:34 | 49.13673 | 11.77166 | 38082 ft | 475 kts | 295° |
| 2026-04-20 18:35 | 49.16481 | 11.68013 | 38084 ft | 476 kts | 295° |
| 2026-04-20 18:35 | 49.19284 | 11.58845 | 38085 ft | 476 kts | 295° |
| 2026-04-20 18:36 | 49.22075 | 11.49678 | 38091 ft | 476 kts | 295° |
| 2026-04-20 18:36 | 49.24864 | 11.40487 | 38095 ft | 476 kts | 295° |
| 2026-04-20 18:37 | 49.27526 | 11.31680 | 38104 ft | 476 kts | 295° |
| 2026-04-20 18:37 | 49.30236 | 11.22683 | 38105 ft | 476 kts | 295° |
| 2026-04-20 18:38 | 49.32990 | 11.13502 | 38106 ft | 477 kts | 295° |
| 2026-04-20 18:38 | 49.35750 | 11.04271 | 38104 ft | 476 kts | 295° |
| 2026-04-20 18:39 | 49.38485 | 10.95101 | 38110 ft | 476 kts | 295° |
| 2026-04-20 18:39 | 49.41342 | 10.86003 | 38113 ft | 479 kts | 297° |
| 2026-04-20 18:40 | 49.44332 | 10.76951 | 38110 ft | 476 kts | 297° |
| 2026-04-20 18:40 | 49.47271 | 10.67927 | 38112 ft | 476 kts | 297° |
| 2026-04-20 18:41 | 49.50193 | 10.58864 | 38104 ft | 476 kts | 297° |
| 2026-04-20 18:41 | 49.53084 | 10.49857 | 38103 ft | 475 kts | 296° |
| 2026-04-20 18:42 | 49.55970 | 10.40830 | 38101 ft | 477 kts | 296° |
| 2026-04-20 18:42 | 49.58911 | 10.31603 | 38107 ft | 475 kts | 296° |
| 2026-04-20 18:43 | 49.61814 | 10.22459 | 38110 ft | 476 kts | 296° |
| 2026-04-20 18:43 | 49.64659 | 10.13465 | 38114 ft | 478 kts | 296° |
| 2026-04-20 18:44 | 49.67430 | 10.04674 | 38124 ft | 477 kts | 296° |
| 2026-04-20 18:44 | 49.70204 | 9.95842 | 38121 ft | 478 kts | 296° |
| 2026-04-20 18:45 | 49.73095 | 9.86606 | 38123 ft | 478 kts | 296° |
| 2026-04-20 18:45 | 49.75979 | 9.77355 | 38125 ft | 478 kts | 296° |
| 2026-04-20 18:46 | 49.78844 | 9.68133 | 38122 ft | 478 kts | 296° |
| 2026-04-20 18:46 | 49.81714 | 9.58859 | 38126 ft | 477 kts | 296° |
| 2026-04-20 18:47 | 49.84555 | 9.49641 | 38128 ft | 478 kts | 296° |
| 2026-04-20 18:47 | 49.87413 | 9.40338 | 38134 ft | 478 kts | 296° |
| 2026-04-20 18:48 | 49.90223 | 9.31154 | 38133 ft | 479 kts | 296° |
| 2026-04-20 18:48 | 49.93076 | 9.21797 | 38135 ft | 479 kts | 296° |
| 2026-04-20 18:49 | 49.95858 | 9.12635 | 38138 ft | 479 kts | 295° |
| 2026-04-20 18:49 | 49.98586 | 9.03619 | 38136 ft | 480 kts | 295° |
| 2026-04-20 18:50 | 50.01385 | 8.94332 | 38136 ft | 479 kts | 295° |
| 2026-04-20 18:50 | 50.04204 | 8.84945 | 38135 ft | 480 kts | 295° |
| 2026-04-20 18:51 | 50.06775 | 8.75359 | 38132 ft | 479 kts | 290° |
| 2026-04-20 18:51 | 50.09067 | 8.65605 | 38130 ft | 480 kts | 291° |
| 2026-04-20 18:52 | 50.11385 | 8.55856 | 38130 ft | 480 kts | 291° |
| 2026-04-20 18:52 | 50.13679 | 8.46104 | 38134 ft | 480 kts | 290° |
| 2026-04-20 18:53 | 50.15956 | 8.36360 | 38140 ft | 480 kts | 290° |
| 2026-04-20 18:53 | 50.18200 | 8.26709 | 38141 ft | 480 kts | 290° |
| 2026-04-20 18:54 | 50.20467 | 8.16913 | 38146 ft | 479 kts | 290° |
| 2026-04-20 18:54 | 50.22706 | 8.07196 | 38154 ft | 482 kts | 290° |
| 2026-04-20 18:55 | 50.24926 | 7.97518 | 38156 ft | 481 kts | 290° |
| 2026-04-20 18:55 | 50.27085 | 7.88059 | 38162 ft | 481 kts | 290° |
| 2026-04-20 18:56 | 50.29312 | 7.78264 | 38161 ft | 482 kts | 290° |
| 2026-04-20 18:56 | 50.31536 | 7.68434 | 38156 ft | 480 kts | 290° |
| 2026-04-20 18:57 | 50.33731 | 7.58685 | 38158 ft | 482 kts | 290° |
| 2026-04-20 18:57 | 50.35840 | 7.49279 | 38154 ft | 482 kts | 290° |
| 2026-04-20 18:58 | 50.38062 | 7.39321 | 38149 ft | 482 kts | 290° |
| 2026-04-20 18:58 | 50.40253 | 7.29454 | 38147 ft | 481 kts | 290° |
| 2026-04-20 18:59 | 50.42448 | 7.19524 | 38144 ft | 482 kts | 290° |
| 2026-04-20 18:59 | 50.44634 | 7.09588 | 38143 ft | 482 kts | 290° |
| 2026-04-20 19:00 | 50.46810 | 6.99646 | 38155 ft | 482 kts | 289° |
| 2026-04-20 19:00 | 50.48976 | 6.89706 | 38157 ft | 481 kts | 289° |
| 2026-04-20 19:01 | 50.51065 | 6.79713 | 38167 ft | 482 kts | 286° |
| 2026-04-20 19:01 | 50.52824 | 6.69596 | 38159 ft | 481 kts | 287° |
| 2026-04-20 19:02 | 50.54610 | 6.59568 | 38165 ft | 482 kts | 286° |
| 2026-04-20 19:02 | 50.56379 | 6.49496 | 38170 ft | 482 kts | 286° |
| 2026-04-20 19:03 | 50.58138 | 6.39391 | 38167 ft | 482 kts | 286° |
| 2026-04-20 19:03 | 50.59894 | 6.29242 | 38177 ft | 481 kts | 286° |
| 2026-04-20 19:04 | 50.61645 | 6.19062 | 38175 ft | 482 kts | 286° |
| 2026-04-20 19:04 | 50.63291 | 6.09437 | 38186 ft | 485 kts | 286° |
| 2026-04-20 19:05 | 50.65031 | 5.99203 | 38185 ft | 482 kts | 285° |
| 2026-04-20 19:05 | 50.66758 | 5.88985 | 38189 ft | 483 kts | 285° |
| 2026-04-20 19:06 | 50.68361 | 5.79448 | 38197 ft | 483 kts | 285° |
| 2026-04-20 19:06 | 50.70076 | 5.69185 | 38186 ft | 483 kts | 285° |
| 2026-04-20 19:07 | 50.71681 | 5.59524 | 38183 ft | 483 kts | 285° |
| 2026-04-20 19:07 | 50.73400 | 5.49115 | 38180 ft | 484 kts | 285° |
| 2026-04-20 19:08 | 50.75933 | 5.33661 | 38189 ft | 481 kts | 285° |
| 2026-04-20 19:09 | 50.77601 | 5.23410 | 38192 ft | 482 kts | 285° |
| 2026-04-20 19:09 | 50.79248 | 5.13219 | 38186 ft | 482 kts | 285° |
| 2026-04-20 19:10 | 50.81226 | 5.03106 | 38184 ft | 483 kts | 292° |
| 2026-04-20 19:10 | 50.84154 | 4.93538 | 38189 ft | 482 kts | 297° |
| 2026-04-20 19:11 | 50.87145 | 4.84072 | 38189 ft | 482 kts | 296° |
| 2026-04-20 19:11 | 50.90142 | 4.74543 | 38200 ft | 482 kts | 296° |
| 2026-04-20 19:12 | 50.93123 | 4.65046 | 38222 ft | 483 kts | 296° |
| 2026-04-20 19:12 | 50.95118 | 4.58673 | 38199 ft | 484 kts | 296° |
| 2026-04-20 19:13 | 50.98627 | 4.47425 | 38197 ft | 484 kts | 296° |
| 2026-04-20 19:13 | 51.01103 | 4.39455 | 38219 ft | 484 kts | 296° |
| 2026-04-20 19:14 | 51.04068 | 4.29880 | 38223 ft | 485 kts | 296° |
| 2026-04-20 19:14 | 51.07033 | 4.20263 | 38224 ft | 484 kts | 296° |
| 2026-04-20 19:15 | 51.09989 | 4.10642 | 38217 ft | 484 kts | 296° |
| 2026-04-20 19:15 | 51.12936 | 4.01008 | 38196 ft | 484 kts | 296° |
| 2026-04-20 19:16 | 51.15878 | 3.91356 | 38198 ft | 484 kts | 296° |
| 2026-04-20 19:16 | 51.18793 | 3.81750 | 38224 ft | 485 kts | 296° |
| 2026-04-20 19:17 | 51.21567 | 3.72568 | 38231 ft | 486 kts | 295° |
| 2026-04-20 19:17 | 51.23854 | 3.62878 | 38223 ft | 486 kts | 287° |
| 2026-04-20 19:18 | 51.25368 | 3.52364 | 38226 ft | 487 kts | 282° |
| 2026-04-20 19:18 | 51.26774 | 3.41875 | 38229 ft | 486 kts | 283° |
| 2026-04-20 19:19 | 51.28162 | 3.31312 | 38231 ft | 487 kts | 282° |
| 2026-04-20 19:19 | 51.29511 | 3.20780 | 38234 ft | 486 kts | 282° |
| 2026-04-20 19:20 | 51.30853 | 3.10218 | 38235 ft | 485 kts | 282° |
| 2026-04-20 19:20 | 51.32189 | 2.99639 | 38239 ft | 486 kts | 282° |
| 2026-04-20 19:21 | 51.33516 | 2.89045 | 38240 ft | 485 kts | 282° |
| 2026-04-20 19:21 | 51.34834 | 2.78445 | 38241 ft | 486 kts | 282° |
| 2026-04-20 19:22 | 51.36144 | 2.67838 | 38244 ft | 485 kts | 282° |
| 2026-04-20 19:22 | 51.37372 | 2.57861 | 38243 ft | 487 kts | 282° |
| 2026-04-20 19:23 | 51.37896 | 2.53582 | 38246 ft | 486 kts | 282° |
| 2026-04-20 19:23 | 51.38735 | 2.46701 | 38248 ft | 486 kts | 282° |
| 2026-04-20 19:24 | 51.40044 | 2.35879 | 38253 ft | 485 kts | 282° |
| 2026-04-20 19:24 | 51.41315 | 2.25296 | 38253 ft | 486 kts | 281° |
| 2026-04-20 19:25 | 51.42420 | 2.16027 | 38256 ft | 486 kts | 281° |
| 2026-04-20 19:25 | 51.43614 | 2.05927 | 38256 ft | 486 kts | 281° |
| 2026-04-20 19:26 | 51.44876 | 1.95288 | 38259 ft | 485 kts | 282° |
| 2026-04-20 19:26 | 51.46183 | 1.84838 | 38260 ft | 486 kts | 282° |
| 2026-04-20 19:27 | 51.47418 | 1.74270 | 38259 ft | 486 kts | 281° |
| 2026-04-20 19:27 | 51.48621 | 1.63693 | 38262 ft | 486 kts | 281° |
| 2026-04-20 19:28 | 51.49852 | 1.52857 | 38264 ft | 487 kts | 281° |
| 2026-04-20 19:28 | 51.51049 | 1.42256 | 38266 ft | 485 kts | 281° |
| 2026-04-20 19:29 | 51.52252 | 1.31513 | 38268 ft | 486 kts | 281° |
| 2026-04-20 19:29 | 51.53410 | 1.21080 | 38268 ft | 485 kts | 281° |
| 2026-04-20 19:30 | 51.54581 | 1.10442 | 38278 ft | 486 kts | 281° |
| 2026-04-20 19:30 | 51.55743 | 0.99787 | 38286 ft | 486 kts | 281° |
| 2026-04-20 19:31 | 51.56897 | 0.89106 | 38291 ft | 486 kts | 280° |
| 2026-04-20 19:31 | 51.57989 | 0.78917 | 38289 ft | 484 kts | 280° |
| 2026-04-20 19:32 | 51.59125 | 0.68225 | 38291 ft | 485 kts | 280° |
| 2026-04-20 19:32 | 51.60250 | 0.57536 | 38291 ft | 485 kts | 280° |
| 2026-04-20 19:33 | 51.61298 | 0.47487 | 38286 ft | 484 kts | 280° |
| 2026-04-20 19:33 | 51.62413 | 0.36704 | 38282 ft | 485 kts | 280° |
| 2026-04-20 19:34 | 51.63506 | 0.26084 | 38286 ft | 486 kts | 281° |
| 2026-04-20 19:34 | 51.65650 | 0.15924 | 38286 ft | 483 kts | 297° |
| 2026-04-20 19:35 | 51.69142 | 0.07759 | 38287 ft | 480 kts | 311° |
| 2026-04-20 19:35 | 51.72408 | 0.02432 | 38064 ft | 464 kts | 314° |
| 2026-04-20 19:35 | 51.73451 | 0.00724 | 37949 ft | 460 kts | 313° |
| 2026-04-20 19:36 | 51.74100 | -0.00345 | 37857 ft | 458 kts | 313° |
| 2026-04-20 19:36 | 51.75540 | -0.02729 | 37668 ft | 454 kts | 313° |
| 2026-04-20 19:36 | 51.77271 | -0.05598 | 37142 ft | 455 kts | 313° |
| 2026-04-20 19:36 | 51.78308 | -0.07319 | 36835 ft | 455 kts | 313° |
| 2026-04-20 19:37 | 51.80304 | -0.10625 | 36128 ft | 455 kts | 313° |
| 2026-04-20 19:37 | 51.82356 | -0.14025 | 35392 ft | 456 kts | 313° |
| 2026-04-20 19:37 | 51.84531 | -0.17631 | 34631 ft | 454 kts | 312° |
| 2026-04-20 19:37 | 51.86433 | -0.20786 | 33833 ft | 454 kts | 312° |
| 2026-04-20 19:38 | 51.88268 | -0.23835 | 33056 ft | 452 kts | 312° |
| 2026-04-20 19:38 | 51.90522 | -0.27585 | 32248 ft | 447 kts | 312° |
| 2026-04-20 19:38 | 51.92656 | -0.31140 | 31793 ft | 436 kts | 312° |
| 2026-04-20 19:38 | 51.94748 | -0.34626 | 31357 ft | 425 kts | 311° |
| 2026-04-20 19:39 | 51.96671 | -0.37839 | 30925 ft | 417 kts | 311° |
| 2026-04-20 19:39 | 51.98658 | -0.41163 | 30673 ft | 405 kts | 311° |
| 2026-04-20 19:39 | 52.00587 | -0.44395 | 30432 ft | 400 kts | 311° |
| 2026-04-20 19:39 | 52.02532 | -0.47663 | 30158 ft | 401 kts | 311° |
| 2026-04-20 19:40 | 52.04399 | -0.50803 | 29878 ft | 400 kts | 311° |
| 2026-04-20 19:40 | 52.06328 | -0.54049 | 29604 ft | 398 kts | 311° |
| 2026-04-20 19:40 | 52.08248 | -0.57285 | 29311 ft | 397 kts | 311° |
| 2026-04-20 19:40 | 52.10152 | -0.60496 | 29047 ft | 396 kts | 311° |
| 2026-04-20 19:41 | 52.12068 | -0.63731 | 28754 ft | 395 kts | 311° |
| 2026-04-20 19:41 | 52.13973 | -0.66951 | 28478 ft | 395 kts | 311° |
| 2026-04-20 19:41 | 52.15877 | -0.70176 | 28211 ft | 394 kts | 311° |
| 2026-04-20 19:41 | 52.17772 | -0.73387 | 27938 ft | 393 kts | 311° |
| 2026-04-20 19:42 | 52.19667 | -0.76606 | 27665 ft | 393 kts | 311° |
| 2026-04-20 19:42 | 52.21557 | -0.79818 | 27400 ft | 392 kts | 311° |
| 2026-04-20 19:42 | 52.23461 | -0.82992 | 27167 ft | 392 kts | 314° |
| 2026-04-20 19:42 | 52.25536 | -0.85827 | 26908 ft | 394 kts | 321° |
| 2026-04-20 19:43 | 52.27056 | -0.87535 | 26729 ft | 395 kts | 324° |
| 2026-04-20 19:43 | 52.29308 | -0.89742 | 26488 ft | 396 kts | 326° |
| 2026-04-20 19:43 | 52.31667 | -0.92080 | 26244 ft | 396 kts | 325° |
| 2026-04-20 19:43 | 52.33755 | -0.94172 | 26015 ft | 395 kts | 326° |
| 2026-04-20 19:44 | 52.36094 | -0.96518 | 25770 ft | 395 kts | 326° |
| 2026-04-20 19:44 | 52.38434 | -0.98862 | 25515 ft | 395 kts | 326° |
| 2026-04-20 19:44 | 52.40786 | -1.01217 | 25267 ft | 394 kts | 326° |
| 2026-04-20 19:44 | 52.42885 | -1.03318 | 24840 ft | 393 kts | 326° |
| 2026-04-20 19:45 | 52.45002 | -1.05439 | 24355 ft | 391 kts | 326° |
| 2026-04-20 19:45 | 52.47363 | -1.07807 | 23799 ft | 387 kts | 326° |
| 2026-04-20 19:45 | 52.49651 | -1.10103 | 23240 ft | 381 kts | 327° |
| 2026-04-20 19:45 | 52.51890 | -1.12354 | 22712 ft | 374 kts | 327° |
| 2026-04-20 19:46 | 52.54042 | -1.14520 | 22225 ft | 369 kts | 327° |
| 2026-04-20 19:46 | 52.56210 | -1.16707 | 21735 ft | 364 kts | 327° |
| 2026-04-20 19:46 | 52.58350 | -1.18866 | 21238 ft | 359 kts | 327° |
| 2026-04-20 19:46 | 52.60470 | -1.21006 | 20756 ft | 356 kts | 327° |
| 2026-04-20 19:47 | 52.62569 | -1.23129 | 20324 ft | 355 kts | 328° |
| 2026-04-20 19:47 | 52.64590 | -1.25176 | 20244 ft | 371 kts | 328° |
| 2026-04-20 19:47 | 52.66827 | -1.27442 | 20242 ft | 380 kts | 328° |
| 2026-04-20 19:47 | 52.68341 | -1.28977 | 20240 ft | 380 kts | 328° |
| 2026-04-20 19:48 | 52.69881 | -1.30539 | 20241 ft | 380 kts | 328° |
| 2026-04-20 19:48 | 52.70676 | -1.31346 | 20242 ft | 380 kts | 328° |
| 2026-04-20 19:48 | 52.71901 | -1.32590 | 20084 ft | 379 kts | 328° |
| 2026-04-20 19:49 | 52.71987 | -1.32678 | 20069 ft | 379 kts | 328° |
| 2026-04-20 19:49 | 52.72614 | -1.33317 | 19913 ft | 380 kts | 328° |
| 2026-04-20 19:49 | 52.73464 | -1.34183 | 19639 ft | 383 kts | 328° |
| 2026-04-20 19:49 | 52.73809 | -1.34535 | 19466 ft | 385 kts | 328° |
| 2026-04-20 19:50 | 52.76090 | -1.36864 | 18496 ft | 394 kts | 328° |
| 2026-04-20 19:50 | 52.78439 | -1.39262 | 17613 ft | 393 kts | 328° |
| 2026-04-20 19:50 | 52.80750 | -1.41622 | 16864 ft | 388 kts | 328° |
| 2026-04-20 19:50 | 52.83046 | -1.43969 | 16090 ft | 385 kts | 329° |
| 2026-04-20 19:51 | 52.85303 | -1.46280 | 15334 ft | 382 kts | 329° |
| 2026-04-20 19:51 | 52.87568 | -1.48602 | 14579 ft | 380 kts | 329° |
| 2026-04-20 19:51 | 52.89773 | -1.50867 | 14169 ft | 370 kts | 329° |
| 2026-04-20 19:51 | 52.91960 | -1.53117 | 13715 ft | 360 kts | 329° |
| 2026-04-20 19:52 | 52.93937 | -1.55154 | 13273 ft | 355 kts | 329° |
| 2026-04-20 19:52 | 52.93967 | -1.55185 | 13261 ft | 354 kts | 329° |
| 2026-04-20 19:52 | 52.93976 | -1.55194 | 13265 ft | 354 kts | 329° |
| 2026-04-20 19:53 | 52.94045 | -1.55265 | 13248 ft | 354 kts | 329° |
| 2026-04-20 19:53 | 52.94254 | -1.55481 | 13200 ft | 354 kts | 329° |
| 2026-04-20 19:54 | 52.95255 | -1.56512 | 13088 ft | 349 kts | 329° |
| 2026-04-20 19:54 | 52.96993 | -1.58304 | 12939 ft | 342 kts | 329° |
| 2026-04-20 19:54 | 52.98847 | -1.60223 | 12816 ft | 329 kts | 329° |
| 2026-04-20 19:54 | 53.00418 | -1.61847 | 12709 ft | 317 kts | 329° |
| 2026-04-20 19:55 | 53.02015 | -1.63500 | 12607 ft | 306 kts | 329° |
| 2026-04-20 19:55 | 53.03812 | -1.65362 | 12495 ft | 294 kts | 330° |
| 2026-04-20 19:55 | 53.05467 | -1.67339 | 12060 ft | 295 kts | 321° |
| 2026-04-20 19:55 | 53.06882 | -1.69799 | 11648 ft | 295 kts | 312° |
| 2026-04-20 19:56 | 53.07750 | -1.71543 | 11378 ft | 294 kts | 312° |
| 2026-04-20 19:56 | 53.09482 | -1.74928 | 10899 ft | 292 kts | 313° |
| 2026-04-20 19:56 | 53.10437 | -1.76771 | 10599 ft | 291 kts | 313° |
| 2026-04-20 19:56 | 53.11767 | -1.79336 | 10219 ft | 289 kts | 313° |
| 2026-04-20 19:57 | 53.12940 | -1.81605 | 9821 ft | 288 kts | 313° |
| 2026-04-20 19:57 | 53.13834 | -1.83339 | 9539 ft | 286 kts | 313° |
| 2026-04-20 19:57 | 53.15515 | -1.86607 | 8984 ft | 285 kts | 313° |
| 2026-04-20 19:57 | 53.16162 | -1.87866 | 8780 ft | 284 kts | 313° |
| 2026-04-20 19:58 | 53.17885 | -1.91225 | 8350 ft | 278 kts | 313° |
| 2026-04-20 19:58 | 53.18728 | -1.92871 | 8111 ft | 276 kts | 313° |